Observation data for Adrian on 07/03/2020      Previous  Date  Next       Current Mesonet Observations  Soil Data  Daily Summary Page  Observations in Plain Language
KAD1 030500Z 15017KT 24/15 A3013 RMK A01 T02350146  RH  057%=      5-min Rain = 0
KAD1 030501Z 15019KT 23/15 A3013 RMK A01 T02340146  RH  057%=      5-min Rain = 0
KAD1 030502Z 15018KT 24/15 A3013 RMK A01 T02350145  RH  057%=      5-min Rain = 0
KAD1 030503Z 15019KT 23/15 A3013 RMK A01 T02340145  RH  057%=      5-min Rain = 0
KAD1 030504Z 15021KT 24/15 A3013 RMK A01 T02350145  RH  057%=      5-min Rain = 0
KAD1 030505Z 15020KT 24/15 A3013 RMK A01 T02350145  RH  057%=      5-min Rain = 0
KAD1 030506Z 14020KT 24/14 A3013 RMK A01 T02360144  RH  057%=      5-min Rain = 0
KAD1 030507Z 15019KT 24/14 A3013 RMK A01 T02360144  RH  056%=      5-min Rain = 0
KAD1 030508Z 14020KT 24/15 A3013 RMK A01 T02360145  RH  056%=      5-min Rain = 0
KAD1 030509Z 15018KT 24/15 A3013 RMK A01 T02360145  RH  057%=      5-min Rain = 0
KAD1 030510Z 15019KT 24/15 A3013 RMK A01 T02360145  RH  057%=      5-min Rain = 0
KAD1 030511Z 15018KT 24/15 A3013 RMK A01 T02360145  RH  057%=      5-min Rain = 0
KAD1 030512Z 15018KT 24/15 A3013 RMK A01 T02350145  RH  057%=      5-min Rain = 0
KAD1 030513Z 15020KT 24/15 A3013 RMK A01 T02350146  RH  057%=      5-min Rain = 0
KAD1 030514Z 15018KT 24/15 A3013 RMK A01 T02350146  RH  057%=      5-min Rain = 0
KAD1 030515Z 15018KT 24/15 A3013 RMK A01 T02350146  RH  057%=      5-min Rain = 0
KAD1 030516Z 15020KT 24/15 A3013 RMK A01 T02350146  RH  057%=      5-min Rain = 0
KAD1 030517Z 15019KT 24/15 A3013 RMK A01 T02350146  RH  057%=      5-min Rain = 0
KAD1 030518Z 15018KT 24/15 A3013 RMK A01 T02350146  RH  057%=      5-min Rain = 0
KAD1 030519Z 15019G24KT 24/15 A3013 RMK A01 T02350147  RH  057%=      5-min Rain = 0
KAD1 030520Z 15020KT 24/15 A3013 RMK A01 T02350147  RH  058%=      5-min Rain = 0
KAD1 030521Z 15019KT 24/15 A3013 RMK A01 T02350147  RH  058%=      5-min Rain = 0
KAD1 030522Z 15018G25KT 24/15 A3013 RMK A01 T02350148  RH  058%=      5-min Rain = 0
KAD1 030523Z 15020KT 24/15 A3013 RMK A01 T02350148  RH  058%=      5-min Rain = 0
KAD1 030524Z 15018KT 24/15 A3013 RMK A01 T02350148  RH  058%=      5-min Rain = 0
KAD1 030525Z 15022KT 24/15 A3013 RMK A01 T02350149  RH  058%=      5-min Rain = 0
KAD1 030526Z 15019KT 24/15 A3013 RMK A01 T02350149  RH  058%=      5-min Rain = 0
KAD1 030527Z 15020KT 24/15 A3013 RMK A01 T02350149  RH  058%=      5-min Rain = 0
KAD1 030528Z 15021KT 24/15 A3013 RMK A01 T02360150  RH  059%=      5-min Rain = 0
KAD1 030529Z 15019KT 24/15 A3013 RMK A01 T02350150  RH  059%=      5-min Rain = 0
KAD1 030530Z 15020KT 24/15 A3013 RMK A01 T02350150  RH  059%=      5-min Rain = 0
KAD1 030531Z 15020KT 24/15 A3013 RMK A01 T02360151  RH  059%=      5-min Rain = 0
KAD1 030532Z 15022KT 24/15 A3013 RMK A01 T02350151  RH  059%=      5-min Rain = 0
KAD1 030533Z 15021KT 24/15 A3013 RMK A01 T02350151  RH  059%=      5-min Rain = 0
KAD1 030534Z 15020KT 24/15 A3013 RMK A01 T02350151  RH  059%=      5-min Rain = 0
KAD1 030535Z 15021KT 24/15 A3013 RMK A01 T02350151  RH  059%=      5-min Rain = 0
KAD1 030536Z 15019KT 24/15 A3013 RMK A01 T02350151  RH  059%=      5-min Rain = 0
KAD1 030537Z 15019KT 24/15 A3013 RMK A01 T02350152  RH  060%=      5-min Rain = 0
KAD1 030538Z 15020KT 23/15 A3013 RMK A01 T02340152  RH  060%=      5-min Rain = 0
KAD1 030539Z 15020KT 23/15 A3013 RMK A01 T02340152  RH  060%=      5-min Rain = 0
KAD1 030540Z 15020KT 23/15 A3013 RMK A01 T02340152  RH  060%=      5-min Rain = 0
KAD1 030541Z 15021KT 23/15 A3013 RMK A01 T02340152  RH  060%=      5-min Rain = 0
KAD1 030542Z 15020KT 23/15 A3013 RMK A01 T02330153  RH  060%=      5-min Rain = 0
KAD1 030543Z 15019KT 23/15 A3013 RMK A01 T02330152  RH  060%=      5-min Rain = 0
KAD1 030544Z 15020KT 23/15 A3013 RMK A01 T02330153  RH  061%=      5-min Rain = 0
KAD1 030545Z 15020KT 23/15 A3013 RMK A01 T02330153  RH  061%=      5-min Rain = 0
KAD1 030546Z 15019KT 23/15 A3013 RMK A01 T02330153  RH  061%=      5-min Rain = 0
KAD1 030547Z 15018KT 23/15 A3013 RMK A01 T02330153  RH  061%=      5-min Rain = 0
KAD1 030548Z 15019KT 23/15 A3013 RMK A01 T02320154  RH  061%=      5-min Rain = 0
KAD1 030549Z 15020KT 23/15 A3013 RMK A01 T02320154  RH  061%=      5-min Rain = 0
KAD1 030550Z 15020KT 23/15 A3013 RMK A01 T02320154  RH  062%=      5-min Rain = 0
KAD1 030551Z 15019KT 23/16 A3013 RMK A01 T02320155  RH  062%=      5-min Rain = 0
KAD1 030552Z 15020KT 23/16 A3013 RMK A01 T02320155  RH  062%=      5-min Rain = 0
KAD1 030553Z 15020KT 23/16 A3013 RMK A01 T02320155  RH  062%=      5-min Rain = 0
KAD1 030554Z 15018KT 23/16 A3013 RMK A01 T02320155  RH  062%=      5-min Rain = 0
KAD1 030555Z 16018G23KT 23/16 A3013 RMK A01 T02320155  RH  062%=      5-min Rain = 0
KAD1 030556Z 16019KT 23/16 A3013 RMK A01 T02310155  RH  062%=      5-min Rain = 0
KAD1 030557Z 16019KT 23/16 A3013 RMK A01 T02310156  RH  063%=      5-min Rain = 0
KAD1 030558Z 16020KT 23/16 A3013 RMK A01 T02310156  RH  063%=      5-min Rain = 0
KAD1 030559Z 16018KT 23/16 A3013 RMK A01 T02300156  RH  063%=      5-min Rain = 0
KAD1 030600Z 16019KT 23/16 A3013 RMK A01 T02300156  RH  063%=      5-min Rain = 0
KAD1 030601Z 16016KT 23/16 A3013 RMK A01 T02300157  RH  063%=      5-min Rain = 0
KAD1 030602Z 16020KT 23/16 A3013 RMK A01 T02300157  RH  064%=      5-min Rain = 0
KAD1 030603Z 16018KT 23/16 A3013 RMK A01 T02290157  RH  064%=      5-min Rain = 0
KAD1 030604Z 16018KT 23/16 A3013 RMK A01 T02290157  RH  064%=      5-min Rain = 0
KAD1 030605Z 16020KT 23/16 A3012 RMK A01 T02290158  RH  064%=      5-min Rain = 0
KAD1 030606Z 16019KT 23/16 A3012 RMK A01 T02290158  RH  064%=      5-min Rain = 0
KAD1 030607Z 16020KT 23/16 A3012 RMK A01 T02300159  RH  064%=      5-min Rain = 0
KAD1 030608Z 16020KT 23/16 A3012 RMK A01 T02290159  RH  064%=      5-min Rain = 0
KAD1 030609Z 16019KT 23/16 A3012 RMK A01 T02300159  RH  064%=      5-min Rain = 0
KAD1 030610Z 16019KT 23/16 A3012 RMK A01 T02300160  RH  065%=      5-min Rain = 0
KAD1 030611Z 16019KT 23/16 A3012 RMK A01 T02290160  RH  065%=      5-min Rain = 0
KAD1 030612Z 16020KT 23/16 A3012 RMK A01 T02290160  RH  065%=      5-min Rain = 0
KAD1 030613Z 16018KT 23/16 A3012 RMK A01 T02300161  RH  065%=      5-min Rain = 0
KAD1 030614Z 16019KT 23/16 A3012 RMK A01 T02290161  RH  065%=      5-min Rain = 0
KAD1 030615Z 16017KT 23/16 A3012 RMK A01 T02290161  RH  065%=      5-min Rain = 0
KAD1 030616Z 16017KT 23/16 A3012 RMK A01 T02290161  RH  065%=      5-min Rain = 0
KAD1 030617Z 16018KT 23/16 A3012 RMK A01 T02290160  RH  065%=      5-min Rain = 0
KAD1 030618Z 16018KT 23/16 A3012 RMK A01 T02280160  RH  066%=      5-min Rain = 0
KAD1 030619Z 16017KT 23/16 A3012 RMK A01 T02290161  RH  066%=      5-min Rain = 0
KAD1 030620Z 16018KT 23/16 A3012 RMK A01 T02290161  RH  066%=      5-min Rain = 0
KAD1 030621Z 16019KT 23/16 A3012 RMK A01 T02280161  RH  066%=      5-min Rain = 0
KAD1 030622Z 16019KT 23/16 A3012 RMK A01 T02290162  RH  066%=      5-min Rain = 0
KAD1 030623Z 16017KT 23/16 A3012 RMK A01 T02290162  RH  066%=      5-min Rain = 0
KAD1 030624Z 16019KT 23/16 A3012 RMK A01 T02290163  RH  066%=      5-min Rain = 0
KAD1 030625Z 16017KT 23/16 A3012 RMK A01 T02290163  RH  066%=      5-min Rain = 0
KAD1 030626Z 16019KT 23/16 A3012 RMK A01 T02290163  RH  066%=      5-min Rain = 0
KAD1 030627Z 16017KT 23/16 A3012 RMK A01 T02290164  RH  067%=      5-min Rain = 0
KAD1 030628Z 16019KT 23/16 A3012 RMK A01 T02290164  RH  067%=      5-min Rain = 0
KAD1 030629Z 16017KT 23/16 A3012 RMK A01 T02280164  RH  067%=      5-min Rain = 0
KAD1 030630Z 16018G23KT 23/16 A3012 RMK A01 T02290164  RH  067%=      5-min Rain = 0
KAD1 030631Z 16017KT 23/16 A3012 RMK A01 T02290164  RH  067%=      5-min Rain = 0
KAD1 030632Z 16016KT 23/16 A3012 RMK A01 T02280164  RH  067%=      5-min Rain = 0
KAD1 030633Z 16018KT 23/16 A3012 RMK A01 T02290164  RH  067%=      5-min Rain = 0
KAD1 030634Z 16018KT 23/16 A3012 RMK A01 T02290164  RH  067%=      5-min Rain = 0
KAD1 030635Z 16017KT 23/16 A3012 RMK A01 T02290164  RH  066%=      5-min Rain = 0
KAD1 030636Z 16019KT 23/16 A3012 RMK A01 T02300164  RH  066%=      5-min Rain = 0
KAD1 030637Z 16020KT 23/16 A3012 RMK A01 T02300164  RH  066%=      5-min Rain = 0
KAD1 030638Z 16019KT 23/16 A3012 RMK A01 T02300164  RH  066%=      5-min Rain = 0
KAD1 030639Z 16018KT 23/16 A3012 RMK A01 T02310164  RH  066%=      5-min Rain = 0
KAD1 030640Z 17017KT 23/16 A3012 RMK A01 T02310164  RH  066%=      5-min Rain = 0
KAD1 030641Z 17016KT 23/16 A3012 RMK A01 T02310164  RH  066%=      5-min Rain = 0
KAD1 030642Z 17021KT 23/16 A3012 RMK A01 T02300163  RH  066%=      5-min Rain = 0
KAD1 030643Z 17019KT 23/16 A3011 RMK A01 T02310163  RH  066%=      5-min Rain = 0
KAD1 030644Z 17018G23KT 23/16 A3011 RMK A01 T02310163  RH  066%=      5-min Rain = 0
KAD1 030645Z 17018KT 23/16 A3011 RMK A01 T02310163  RH  066%=      5-min Rain = 0
KAD1 030646Z 17020KT 23/16 A3011 RMK A01 T02310164  RH  066%=      5-min Rain = 0
KAD1 030647Z 17019KT 23/16 A3011 RMK A01 T02310164  RH  066%=      5-min Rain = 0
KAD1 030648Z 17019KT 23/16 A3011 RMK A01 T02310164  RH  066%=      5-min Rain = 0
KAD1 030649Z 17019KT 23/16 A3011 RMK A01 T02300164  RH  066%=      5-min Rain = 0
KAD1 030650Z 17020KT 23/17 A3011 RMK A01 T02300165  RH  067%=      5-min Rain = 0
KAD1 030651Z 17020KT 23/17 A3011 RMK A01 T02300165  RH  067%=      5-min Rain = 0
KAD1 030652Z 17019KT 23/17 A3011 RMK A01 T02300165  RH  067%=      5-min Rain = 0
KAD1 030653Z 17018KT 23/17 A3011 RMK A01 T02300165  RH  067%=      5-min Rain = 0
KAD1 030654Z 17018G24KT 23/17 A301 RMK A01 T02290165  RH  067%=      5-min Rain = 0
KAD1 030655Z 17017KT 23/17 A301 RMK A01 T02290165  RH  067%=      5-min Rain = 0
KAD1 030656Z 17018KT 23/17 A301 RMK A01 T02290165  RH  067%=      5-min Rain = 0
KAD1 030657Z 17019KT 23/17 A301 RMK A01 T02280165  RH  068%=      5-min Rain = 0
KAD1 030658Z 17019KT 23/17 A301 RMK A01 T02280165  RH  068%=      5-min Rain = 0
KAD1 030659Z 16017KT 23/17 A3011 RMK A01 T02280165  RH  068%=      5-min Rain = 0
KAD1 030700Z 17018KT 23/17 A3011 RMK A01 T02270165  RH  068%=      5-min Rain = 0
KAD1 030701Z 16018KT 23/17 A3011 RMK A01 T02270165  RH  068%=      5-min Rain = 0
KAD1 030702Z 16019KT 23/17 A3011 RMK A01 T02270165  RH  068%=      5-min Rain = 0
KAD1 030703Z 16020KT 23/17 A3011 RMK A01 T02270166  RH  068%=      5-min Rain = 0
KAD1 030704Z 16019KT 23/17 A3011 RMK A01 T02270166  RH  069%=      5-min Rain = 0
KAD1 030705Z 16019KT 23/17 A3011 RMK A01 T02260166  RH  069%=      5-min Rain = 0
KAD1 030706Z 16019KT 23/17 A3011 RMK A01 T02260166  RH  069%=      5-min Rain = 0
KAD1 030707Z 16017KT 23/17 A3011 RMK A01 T02250166  RH  069%=      5-min Rain = 0
KAD1 030708Z 16018KT 23/17 A3011 RMK A01 T02250166  RH  069%=      5-min Rain = 0
KAD1 030709Z 16018KT 22/17 A3011 RMK A01 T02240166  RH  069%=      5-min Rain = 0
KAD1 030710Z 16018KT 22/17 A3011 RMK A01 T02240166  RH  070%=      5-min Rain = 0
KAD1 030711Z 16017KT 22/17 A3011 RMK A01 T02240166  RH  070%=      5-min Rain = 0
KAD1 030712Z 16017KT 22/17 A3011 RMK A01 T02230166  RH  070%=      5-min Rain = 0
KAD1 030713Z 16017KT 22/17 A3011 RMK A01 T02230166  RH  070%=      5-min Rain = 0
KAD1 030714Z 16016KT 22/17 A3011 RMK A01 T02230166  RH  070%=      5-min Rain = 0
KAD1 030715Z 16016KT 22/17 A3011 RMK A01 T02230166  RH  070%=      5-min Rain = 0
KAD1 030716Z 16016KT 22/17 A3011 RMK A01 T02220166  RH  070%=      5-min Rain = 0
KAD1 030717Z 16017KT 22/17 A3011 RMK A01 T02220166  RH  071%=      5-min Rain = 0
KAD1 030718Z 16017KT 22/17 A3011 RMK A01 T02220166  RH  071%=      5-min Rain = 0
KAD1 030719Z 16018KT 22/17 A3011 RMK A01 T02220166  RH  071%=      5-min Rain = 0
KAD1 030720Z 16017KT 22/17 A3011 RMK A01 T02220166  RH  071%=      5-min Rain = 0
KAD1 030721Z 16017KT 22/17 A3011 RMK A01 T02220166  RH  071%=      5-min Rain = 0
KAD1 030722Z 16018KT 22/17 A3011 RMK A01 T02220166  RH  071%=      5-min Rain = 0
KAD1 030723Z 16018KT 22/17 A3011 RMK A01 T02210167  RH  071%=      5-min Rain = 0
KAD1 030724Z 16018KT 22/17 A3011 RMK A01 T02210167  RH  071%=      5-min Rain = 0
KAD1 030725Z 16018KT 22/17 A3011 RMK A01 T02220167  RH  071%=      5-min Rain = 0
KAD1 030726Z 16018KT 22/17 A3011 RMK A01 T02220167  RH  071%=      5-min Rain = 0
KAD1 030727Z 17018KT 22/17 A3011 RMK A01 T02210166  RH  071%=      5-min Rain = 0
KAD1 030728Z 17018KT 22/17 A3011 RMK A01 T02210167  RH  071%=      5-min Rain = 0
KAD1 030729Z 17018KT 22/17 A3011 RMK A01 T02210167  RH  071%=      5-min Rain = 0
KAD1 030730Z 17017KT 22/17 A3011 RMK A01 T02210167  RH  071%=      5-min Rain = 0
KAD1 030731Z 17017KT 22/17 A301 RMK A01 T02210167  RH  071%=      5-min Rain = 0
KAD1 030732Z 17018KT 22/17 A301 RMK A01 T02200166  RH  071%=      5-min Rain = 0
KAD1 030733Z 17018KT 22/17 A301 RMK A01 T02200167  RH  072%=      5-min Rain = 0
KAD1 030734Z 17018KT 22/17 A301 RMK A01 T02200167  RH  072%=      5-min Rain = 0
KAD1 030735Z 17019KT 22/17 A301 RMK A01 T02200167  RH  072%=      5-min Rain = 0
KAD1 030736Z 17017KT 22/17 A301 RMK A01 T02200167  RH  072%=      5-min Rain = 0
KAD1 030737Z 17018KT 22/17 A301 RMK A01 T02200167  RH  072%=      5-min Rain = 0
KAD1 030738Z 17019KT 22/17 A301 RMK A01 T02200167  RH  072%=      5-min Rain = 0
KAD1 030739Z 17020KT 22/17 A301 RMK A01 T02200167  RH  072%=      5-min Rain = 0
KAD1 030740Z 17019KT 22/17 A301 RMK A01 T02200167  RH  072%=      5-min Rain = 0
KAD1 030741Z 17018KT 22/17 A301 RMK A01 T02200167  RH  072%=      5-min Rain = 0
KAD1 030742Z 17018KT 22/17 A301 RMK A01 T02200167  RH  072%=      5-min Rain = 0
KAD1 030743Z 17019KT 22/17 A301 RMK A01 T02190167  RH  072%=      5-min Rain = 0
KAD1 030744Z 17017KT 22/17 A301 RMK A01 T02190167  RH  072%=      5-min Rain = 0
KAD1 030745Z 17018KT 22/17 A301 RMK A01 T02190167  RH  072%=      5-min Rain = 0
KAD1 030746Z 17016KT 22/17 A301 RMK A01 T02180167  RH  072%=      5-min Rain = 0
KAD1 030747Z 17017KT 22/17 A301 RMK A01 T02190167  RH  073%=      5-min Rain = 0
KAD1 030748Z 17017KT 22/17 A301 RMK A01 T02190167  RH  073%=      5-min Rain = 0
KAD1 030749Z 17019KT 22/17 A301 RMK A01 T02180167  RH  073%=      5-min Rain = 0
KAD1 030750Z 17018KT 22/17 A301 RMK A01 T02180167  RH  073%=      5-min Rain = 0
KAD1 030751Z 17018KT 22/17 A301 RMK A01 T02190167  RH  073%=      5-min Rain = 0
KAD1 030752Z 17018KT 22/17 A301 RMK A01 T02180167  RH  073%=      5-min Rain = 0
KAD1 030753Z 17017KT 22/17 A301 RMK A01 T02180167  RH  073%=      5-min Rain = 0
KAD1 030754Z 16017KT 22/17 A301 RMK A01 T02180167  RH  073%=      5-min Rain = 0
KAD1 030755Z 17017KT 22/17 A301 RMK A01 T02180167  RH  073%=      5-min Rain = 0
KAD1 030756Z 17019KT 22/17 A301 RMK A01 T02170167  RH  073%=      5-min Rain = 0
KAD1 030757Z 16018KT 22/17 A301 RMK A01 T02180168  RH  073%=      5-min Rain = 0
KAD1 030758Z 16018KT 22/17 A301 RMK A01 T02170167  RH  073%=      5-min Rain = 0
KAD1 030759Z 17018KT 22/17 A301 RMK A01 T02170167  RH  073%=      5-min Rain = 0
KAD1 030800Z 17019KT 22/17 A301 RMK A01 T02170168  RH  073%=      5-min Rain = 0
KAD1 030801Z 16016KT 22/17 A301 RMK A01 T02180168  RH  073%=      5-min Rain = 0
KAD1 030802Z 17017KT 22/17 A301 RMK A01 T02170167  RH  073%=      5-min Rain = 0
KAD1 030803Z 16016KT 22/17 A301 RMK A01 T02160167  RH  074%=      5-min Rain = 0
KAD1 030804Z 17017KT 22/17 A301 RMK A01 T02160167  RH  074%=      5-min Rain = 0
KAD1 030805Z 17017KT 22/17 A301 RMK A01 T02170167  RH  074%=      5-min Rain = 0
KAD1 030806Z 17018KT 22/17 A301 RMK A01 T02170167  RH  073%=      5-min Rain = 0
KAD1 030807Z 16018KT 22/17 A301 RMK A01 T02170168  RH  074%=      5-min Rain = 0
KAD1 030808Z 16018KT 22/17 A301 RMK A01 T02170167  RH  073%=      5-min Rain = 0
KAD1 030809Z 16018KT 22/17 A301 RMK A01 T02170167  RH  073%=      5-min Rain = 0
KAD1 030810Z 16018KT 22/17 A301 RMK A01 T02170167  RH  073%=      5-min Rain = 0
KAD1 030811Z 17018KT 22/17 A301 RMK A01 T02170167  RH  073%=      5-min Rain = 0
KAD1 030812Z 17016KT 22/17 A301 RMK A01 T02170167  RH  073%=      5-min Rain = 0
KAD1 030813Z 17018KT 22/17 A301 RMK A01 T02160167  RH  074%=      5-min Rain = 0
KAD1 030814Z 17018KT 22/17 A301 RMK A01 T02160167  RH  074%=      5-min Rain = 0
KAD1 030815Z 17017KT 22/17 A301 RMK A01 T02160167  RH  074%=      5-min Rain = 0
KAD1 030816Z 17018KT 22/17 A301 RMK A01 T02160167  RH  073%=      5-min Rain = 0
KAD1 030817Z 17018KT 22/17 A301 RMK A01 T02160167  RH  074%=      5-min Rain = 0
KAD1 030818Z 17017KT 22/17 A301 RMK A01 T02160167  RH  074%=      5-min Rain = 0
KAD1 030819Z 17017KT 22/17 A301 RMK A01 T02160167  RH  074%=      5-min Rain = 0
KAD1 030820Z 17017KT 22/17 A301 RMK A01 T02160167  RH  074%=      5-min Rain = 0
KAD1 030821Z 17015KT 22/17 A301 RMK A01 T02160167  RH  074%=      5-min Rain = 0
KAD1 030822Z 17017KT 22/17 A301 RMK A01 T02160167  RH  074%=      5-min Rain = 0
KAD1 030823Z 17016KT 22/17 A301 RMK A01 T02150166  RH  074%=      5-min Rain = 0
KAD1 030824Z 17016G21KT 22/17 A301 RMK A01 T02150167  RH  074%=      5-min Rain = 0
KAD1 030825Z 17018KT 22/17 A301 RMK A01 T02150166  RH  074%=      5-min Rain = 0
KAD1 030826Z 17017KT 22/17 A301 RMK A01 T02150167  RH  074%=      5-min Rain = 0
KAD1 030827Z 17017KT 22/17 A301 RMK A01 T02150167  RH  074%=      5-min Rain = 0
KAD1 030828Z 17017KT 22/17 A301 RMK A01 T02150166  RH  074%=      5-min Rain = 0
KAD1 030829Z 17017KT 22/17 A301 RMK A01 T02150166  RH  074%=      5-min Rain = 0
KAD1 030830Z 17016KT 22/17 A301 RMK A01 T02150166  RH  074%=      5-min Rain = 0
KAD1 030831Z 17017KT 21/17 A301 RMK A01 T02140166  RH  074%=      5-min Rain = 0
KAD1 030832Z 17018KT 21/17 A301 RMK A01 T02140166  RH  074%=      5-min Rain = 0
KAD1 030833Z 17017KT 22/17 A3009 RMK A01 T02150166  RH  074%=      5-min Rain = 0
KAD1 030834Z 17016KT 21/17 A301 RMK A01 T02140166  RH  074%=      5-min Rain = 0
KAD1 030835Z 17017KT 21/17 A301 RMK A01 T02140166  RH  074%=      5-min Rain = 0
KAD1 030836Z 17017KT 21/17 A3009 RMK A01 T02140166  RH  074%=      5-min Rain = 0
KAD1 030837Z 17016KT 21/17 A3009 RMK A01 T02140166  RH  074%=      5-min Rain = 0
KAD1 030838Z 17017KT 21/17 A3009 RMK A01 T02140166  RH  074%=      5-min Rain = 0
KAD1 030839Z 17016KT 21/17 A3009 RMK A01 T02140166  RH  074%=      5-min Rain = 0
KAD1 030840Z 17017KT 21/17 A3009 RMK A01 T02130166  RH  074%=      5-min Rain = 0
KAD1 030841Z 17016KT 21/17 A301 RMK A01 T02130166  RH  074%=      5-min Rain = 0
KAD1 030842Z 17016KT 21/17 A301 RMK A01 T02130166  RH  074%=      5-min Rain = 0
KAD1 030843Z 17016KT 21/17 A301 RMK A01 T02130166  RH  074%=      5-min Rain = 0
KAD1 030844Z 17016KT 21/17 A3009 RMK A01 T02130166  RH  074%=      5-min Rain = 0
KAD1 030845Z 17018KT 21/17 A3009 RMK A01 T02120165  RH  074%=      5-min Rain = 0
KAD1 030846Z 18017KT 21/17 A3009 RMK A01 T02130166  RH  075%=      5-min Rain = 0
KAD1 030847Z 18018KT 21/17 A3009 RMK A01 T02120165  RH  074%=      5-min Rain = 0
KAD1 030848Z 17018KT 21/17 A301 RMK A01 T02130165  RH  074%=      5-min Rain = 0
KAD1 030849Z 18017KT 21/17 A301 RMK A01 T02130165  RH  074%=      5-min Rain = 0
KAD1 030850Z 18016KT 21/17 A301 RMK A01 T02130165  RH  074%=      5-min Rain = 0
KAD1 030851Z 18016KT 21/17 A301 RMK A01 T02130165  RH  074%=      5-min Rain = 0
KAD1 030852Z 18015KT 21/17 A301 RMK A01 T02130166  RH  074%=      5-min Rain = 0
KAD1 030853Z 18014KT 21/17 A301 RMK A01 T02120165  RH  074%=      5-min Rain = 0
KAD1 030854Z 18015KT 21/17 A301 RMK A01 T02120165  RH  075%=      5-min Rain = 0
KAD1 030855Z 17016KT 21/17 A301 RMK A01 T02110165  RH  075%=      5-min Rain = 0
KAD1 030856Z 18016KT 21/17 A301 RMK A01 T02110165  RH  075%=      5-min Rain = 0
KAD1 030857Z 18017KT 21/17 A3009 RMK A01 T02120165  RH  075%=      5-min Rain = 0
KAD1 030858Z 18019KT 21/17 A3009 RMK A01 T02110165  RH  075%=      5-min Rain = 0
KAD1 030859Z 18020KT 21/17 A3009 RMK A01 T02110165  RH  075%=      5-min Rain = 0
KAD1 030900Z 18020KT 21/17 A3009 RMK A01 T02110165  RH  075%=      5-min Rain = 0
KAD1 030901Z 18019KT 21/17 A3009 RMK A01 T02120165  RH  075%=      5-min Rain = 0
KAD1 030902Z 18019KT 21/17 A3009 RMK A01 T02110165  RH  075%=      5-min Rain = 0
KAD1 030903Z 18017KT 21/17 A3009 RMK A01 T02120165  RH  075%=      5-min Rain = 0
KAD1 030904Z 18018KT 21/17 A3009 RMK A01 T02120165  RH  075%=      5-min Rain = 0
KAD1 030905Z 18016KT 21/17 A3009 RMK A01 T02120166  RH  075%=      5-min Rain = 0
KAD1 030906Z 18015KT 21/17 A3009 RMK A01 T02120166  RH  075%=      5-min Rain = 0
KAD1 030907Z 18014KT 21/17 A3009 RMK A01 T02120166  RH  075%=      5-min Rain = 0
KAD1 030908Z 18015KT 21/17 A3009 RMK A01 T02120166  RH  075%=      5-min Rain = 0
KAD1 030909Z 18015KT 21/17 A3009 RMK A01 T02120166  RH  075%=      5-min Rain = 0
KAD1 030910Z 18014KT 21/17 A3009 RMK A01 T02120166  RH  075%=      5-min Rain = 0
KAD1 030911Z 18016KT 21/17 A3009 RMK A01 T02120167  RH  075%=      5-min Rain = 0
KAD1 030912Z 18017KT 21/17 A3009 RMK A01 T02120167  RH  076%=      5-min Rain = 0
KAD1 030913Z 18017KT 21/17 A3009 RMK A01 T02130168  RH  075%=      5-min Rain = 0
KAD1 030914Z 18017KT 21/17 A3009 RMK A01 T02130168  RH  075%=      5-min Rain = 0
KAD1 030915Z 18017KT 21/17 A3009 RMK A01 T02130168  RH  075%=      5-min Rain = 0
KAD1 030916Z 18017KT 21/17 A3009 RMK A01 T02120168  RH  076%=      5-min Rain = 0
KAD1 030917Z 18017KT 21/17 A3009 RMK A01 T02130168  RH  076%=      5-min Rain = 0
KAD1 030918Z 18017KT 21/17 A3009 RMK A01 T02120168  RH  076%=      5-min Rain = 0
KAD1 030919Z 18016KT 21/17 A3009 RMK A01 T02120169  RH  076%=      5-min Rain = 0
KAD1 030920Z 19016KT 21/17 A3009 RMK A01 T02120169  RH  076%=      5-min Rain = 0
KAD1 030921Z 19015KT 21/17 A3009 RMK A01 T02120169  RH  076%=      5-min Rain = 0
KAD1 030922Z 19016KT 21/17 A3009 RMK A01 T02120169  RH  077%=      5-min Rain = 0
KAD1 030923Z 19015KT 21/17 A3009 RMK A01 T02110169  RH  077%=      5-min Rain = 0
KAD1 030924Z 19016KT 21/17 A3009 RMK A01 T02110170  RH  077%=      5-min Rain = 0
KAD1 030925Z 19015KT 21/17 A3009 RMK A01 T02120170  RH  077%=      5-min Rain = 0
KAD1 030926Z 19015KT 21/17 A3009 RMK A01 T02110170  RH  077%=      5-min Rain = 0
KAD1 030927Z 19015KT 21/17 A3009 RMK A01 T02110170  RH  077%=      5-min Rain = 0
KAD1 030928Z 19016KT 21/17 A3009 RMK A01 T02110170  RH  078%=      5-min Rain = 0
KAD1 030929Z 19014KT 21/17 A3009 RMK A01 T02110171  RH  078%=      5-min Rain = 0
KAD1 030930Z 19014KT 21/17 A3009 RMK A01 T02110171  RH  078%=      5-min Rain = 0
KAD1 030931Z 19014KT 21/17 A3009 RMK A01 T02100171  RH  078%=      5-min Rain = 0
KAD1 030932Z 19015KT 21/17 A3009 RMK A01 T02100171  RH  078%=      5-min Rain = 0
KAD1 030933Z 19013KT 21/17 A3009 RMK A01 T02100171  RH  078%=      5-min Rain = 0
KAD1 030934Z 19013KT 21/17 A3009 RMK A01 T02100171  RH  079%=      5-min Rain = 0
KAD1 030935Z 19014KT 21/17 A3009 RMK A01 T02090171  RH  079%=      5-min Rain = 0
KAD1 030936Z 19015KT 21/17 A3009 RMK A01 T02090172  RH  079%=      5-min Rain = 0
KAD1 030937Z 19014KT 21/17 A3009 RMK A01 T02090171  RH  079%=      5-min Rain = 0
KAD1 030938Z 20013KT 21/17 A3009 RMK A01 T02090172  RH  079%=      5-min Rain = 0
KAD1 030939Z 20013KT 21/17 A301 RMK A01 T02090172  RH  079%=      5-min Rain = 0
KAD1 030940Z 20013KT 21/17 A301 RMK A01 T02090172  RH  079%=      5-min Rain = 0
KAD1 030941Z 20013KT 21/17 A301 RMK A01 T02080171  RH  079%=      5-min Rain = 0
KAD1 030942Z 20013KT 21/17 A301 RMK A01 T02080172  RH  080%=      5-min Rain = 0
KAD1 030943Z 20014KT 21/17 A301 RMK A01 T02070171  RH  080%=      5-min Rain = 0
KAD1 030944Z 20013KT 21/17 A301 RMK A01 T02070171  RH  080%=      5-min Rain = 0
KAD1 030945Z 20013KT 21/17 A301 RMK A01 T02070171  RH  080%=      5-min Rain = 0
KAD1 030946Z 20013KT 21/17 A301 RMK A01 T02070171  RH  080%=      5-min Rain = 0
KAD1 030947Z 20012KT 21/17 A301 RMK A01 T02070171  RH  080%=      5-min Rain = 0
KAD1 030948Z 20013KT 21/17 A301 RMK A01 T02070171  RH  080%=      5-min Rain = 0
KAD1 030949Z 20014KT 21/17 A301 RMK A01 T02070171  RH  080%=      5-min Rain = 0
KAD1 030950Z 20012KT 21/17 A301 RMK A01 T02070170  RH  079%=      5-min Rain = 0
KAD1 030951Z 20014KT 21/17 A301 RMK A01 T02060170  RH  079%=      5-min Rain = 0
KAD1 030952Z 20015KT 21/17 A301 RMK A01 T02070169  RH  079%=      5-min Rain = 0
KAD1 030953Z 20015KT 21/17 A301 RMK A01 T02070168  RH  079%=      5-min Rain = 0
KAD1 030954Z 20014KT 21/17 A301 RMK A01 T02070168  RH  078%=      5-min Rain = 0
KAD1 030955Z 20015KT 21/17 A301 RMK A01 T02070167  RH  078%=      5-min Rain = 0
KAD1 030956Z 20014KT 21/17 A301 RMK A01 T02070167  RH  078%=      5-min Rain = 0
KAD1 030957Z 20014KT 21/17 A301 RMK A01 T02070167  RH  078%=      5-min Rain = 0
KAD1 030958Z 20012KT 21/17 A301 RMK A01 T02060167  RH  078%=      5-min Rain = 0
KAD1 030959Z 20015KT 21/17 A301 RMK A01 T02060166  RH  078%=      5-min Rain = 0
KAD1 031000Z 20016KT 21/17 A301 RMK A01 T02060166  RH  078%=      5-min Rain = 0
KAD1 031001Z 21014KT 21/17 A301 RMK A01 T02060165  RH  077%=      5-min Rain = 0
KAD1 031002Z 20014KT 21/17 A301 RMK A01 T02070166  RH  077%=      5-min Rain = 0
KAD1 031003Z 20014KT 21/17 A301 RMK A01 T02060165  RH  077%=      5-min Rain = 0
KAD1 031004Z 20014KT 21/17 A301 RMK A01 T02060165  RH  077%=      5-min Rain = 0
KAD1 031005Z 21012KT 21/16 A301 RMK A01 T02050164  RH  077%=      5-min Rain = 0
KAD1 031006Z 21013KT 21/16 A301 RMK A01 T02050163  RH  077%=      5-min Rain = 0
KAD1 031007Z 21014KT 20/16 A301 RMK A01 T02040163  RH  077%=      5-min Rain = 0
KAD1 031008Z 21013KT 20/16 A301 RMK A01 T02040162  RH  077%=      5-min Rain = 0
KAD1 031009Z 20013KT 20/16 A301 RMK A01 T02040162  RH  076%=      5-min Rain = 0
KAD1 031010Z 21013KT 20/16 A301 RMK A01 T02040161  RH  076%=      5-min Rain = 0
KAD1 031011Z 21013KT 20/16 A301 RMK A01 T02040161  RH  076%=      5-min Rain = 0
KAD1 031012Z 21014KT 20/16 A301 RMK A01 T02040160  RH  076%=      5-min Rain = 0
KAD1 031013Z 20013KT 20/16 A301 RMK A01 T02040159  RH  075%=      5-min Rain = 0
KAD1 031014Z 21013KT 20/16 A301 RMK A01 T02040158  RH  075%=      5-min Rain = 0
KAD1 031015Z 20012KT 20/16 A301 RMK A01 T02040158  RH  075%=      5-min Rain = 0
KAD1 031016Z 20013KT 20/16 A301 RMK A01 T02040158  RH  075%=      5-min Rain = 0
KAD1 031017Z 20012G17KT 20/16 A301 RMK A01 T02040158  RH  075%=      5-min Rain = 0
KAD1 031018Z 21013KT 20/16 A301 RMK A01 T02030157  RH  075%=      5-min Rain = 0
KAD1 031019Z 20013KT 20/16 A301 RMK A01 T02030156  RH  074%=      5-min Rain = 0
KAD1 031020Z 20013KT 20/16 A301 RMK A01 T02030156  RH  074%=      5-min Rain = 0
KAD1 031021Z 20013KT 20/16 A301 RMK A01 T02030156  RH  074%=      5-min Rain = 0
KAD1 031022Z 20011KT 20/16 A301 RMK A01 T02030156  RH  074%=      5-min Rain = 0
KAD1 031023Z 21012KT 20/16 A301 RMK A01 T02020155  RH  074%=      5-min Rain = 0
KAD1 031024Z 20012KT 20/16 A301 RMK A01 T02020155  RH  074%=      5-min Rain = 0
KAD1 031025Z 20011KT 20/16 A301 RMK A01 T02020155  RH  074%=      5-min Rain = 0
KAD1 031026Z 20011KT 20/15 A301 RMK A01 T02010154  RH  074%=      5-min Rain = 0
KAD1 031027Z 21011KT 20/15 A301 RMK A01 T02020154  RH  074%=      5-min Rain = 0
KAD1 031028Z 21011KT 20/15 A301 RMK A01 T02010153  RH  074%=      5-min Rain = 0
KAD1 031029Z 21011KT 20/15 A301 RMK A01 T02010153  RH  074%=      5-min Rain = 0
KAD1 031030Z 22010KT 20/15 A3011 RMK A01 T02010152  RH  073%=      5-min Rain = 0
KAD1 031031Z 22009KT 20/15 A3011 RMK A01 T02010152  RH  073%=      5-min Rain = 0
KAD1 031032Z 22008KT 20/15 A3011 RMK A01 T02010152  RH  073%=      5-min Rain = 0
KAD1 031033Z 22009KT 20/15 A3011 RMK A01 T02000151  RH  074%=      5-min Rain = 0
KAD1 031034Z 23009KT 20/15 A3011 RMK A01 T02000151  RH  073%=      5-min Rain = 0
KAD1 031035Z 23008KT 20/15 A3011 RMK A01 T01990150  RH  073%=      5-min Rain = 0
KAD1 031036Z 24007KT 20/15 A3011 RMK A01 T01990150  RH  073%=      5-min Rain = 0
KAD1 031037Z 25007KT 20/15 A3011 RMK A01 T01990150  RH  073%=      5-min Rain = 0
KAD1 031038Z 24008KT 20/15 A3011 RMK A01 T01980149  RH  073%=      5-min Rain = 0
KAD1 031039Z 24008KT 20/15 A3011 RMK A01 T01980149  RH  073%=      5-min Rain = 0
KAD1 031040Z 24008KT 20/15 A3011 RMK A01 T01990149  RH  073%=      5-min Rain = 0
KAD1 031041Z 23008KT 20/15 A3011 RMK A01 T02010149  RH  072%=      5-min Rain = 0
KAD1 031042Z 23008KT 20/15 A3011 RMK A01 T02030149  RH  071%=      5-min Rain = 0
KAD1 031043Z 23008KT 20/15 A3011 RMK A01 T02020148  RH  071%=      5-min Rain = 0
KAD1 031044Z 23009KT 20/15 A3011 RMK A01 T02020148  RH  071%=      5-min Rain = 0
KAD1 031045Z 22009KT 20/15 A3011 RMK A01 T02030148  RH  071%=      5-min Rain = 0
KAD1 031046Z 22009KT 20/15 A3011 RMK A01 T02040148  RH  070%=      5-min Rain = 0
KAD1 031047Z 23009KT 21/15 A3011 RMK A01 T02060149  RH  070%=      5-min Rain = 0
KAD1 031048Z 23008KT 21/15 A3012 RMK A01 T02080149  RH  069%=      5-min Rain = 0
KAD1 031049Z 23008KT 21/15 A3012 RMK A01 T02090149  RH  069%=      5-min Rain = 0
KAD1 031050Z 23009KT 21/15 A3012 RMK A01 T02080149  RH  069%=      5-min Rain = 0
KAD1 031051Z 22010KT 21/15 A3012 RMK A01 T02070149  RH  069%=      5-min Rain = 0
KAD1 031052Z 22010KT 21/15 A3012 RMK A01 T02070148  RH  069%=      5-min Rain = 0
KAD1 031053Z 22011KT 21/15 A3012 RMK A01 T02070148  RH  069%=      5-min Rain = 0
KAD1 031054Z 22011KT 21/15 A3012 RMK A01 T02080149  RH  069%=      5-min Rain = 0
KAD1 031055Z 22012KT 21/15 A3012 RMK A01 T02080149  RH  069%=      5-min Rain = 0
KAD1 031056Z 22010KT 21/15 A3012 RMK A01 T02080149  RH  069%=      5-min Rain = 0
KAD1 031057Z 22010KT 21/15 A3012 RMK A01 T02080149  RH  069%=      5-min Rain = 0
KAD1 031058Z 23009KT 21/15 A3012 RMK A01 T02080149  RH  069%=      5-min Rain = 0
KAD1 031059Z 23008KT 21/15 A3012 RMK A01 T02080149  RH  069%=      5-min Rain = 0
KAD1 031100Z 24008KT 21/15 A3012 RMK A01 T02080148  RH  068%=      5-min Rain = 0
KAD1 031101Z 25008KT 21/15 A3012 RMK A01 T02100148  RH  068%=      5-min Rain = 0
KAD1 031102Z 26007KT 21/15 A3012 RMK A01 T02100147  RH  067%=      5-min Rain = 0
KAD1 031103Z 27006KT 21/15 A3012 RMK A01 T02100147  RH  067%=      5-min Rain = 0
KAD1 031104Z 27006KT 21/15 A3012 RMK A01 T02100148  RH  067%=      5-min Rain = 0
KAD1 031105Z 26006KT 21/15 A3012 RMK A01 T02100147  RH  067%=      5-min Rain = 0
KAD1 031106Z 27005KT 21/15 A3012 RMK A01 T02100148  RH  067%=      5-min Rain = 0
KAD1 031107Z 28005KT 21/15 A3012 RMK A01 T02100147  RH  068%=      5-min Rain = 0
KAD1 031108Z 26005KT 21/15 A3012 RMK A01 T02100148  RH  068%=      5-min Rain = 0
KAD1 031109Z 26006KT 21/15 A3012 RMK A01 T02090148  RH  068%=      5-min Rain = 0
KAD1 031110Z 25006KT 21/15 A3012 RMK A01 T02090148  RH  068%=      5-min Rain = 0
KAD1 031111Z 25006KT 21/15 A3012 RMK A01 T02080147  RH  068%=      5-min Rain = 0
KAD1 031112Z 26006KT 21/15 A3012 RMK A01 T02070147  RH  069%=      5-min Rain = 0
KAD1 031113Z 26005KT 21/15 A3013 RMK A01 T02050147  RH  069%=      5-min Rain = 0
KAD1 031114Z 27006KT 20/15 A3013 RMK A01 T02040147  RH  070%=      5-min Rain = 0
KAD1 031115Z 27005KT 20/15 A3013 RMK A01 T02030147  RH  070%=      5-min Rain = 0
KAD1 031116Z 28006KT 20/15 A3013 RMK A01 T02020146  RH  070%=      5-min Rain = 0
KAD1 031117Z 28006KT 20/15 A3013 RMK A01 T02010147  RH  071%=      5-min Rain = 0
KAD1 031118Z 29006KT 20/15 A3013 RMK A01 T02010147  RH  071%=      5-min Rain = 0
KAD1 031119Z 29005KT 20/15 A3013 RMK A01 T02020147  RH  070%=      5-min Rain = 0
KAD1 031120Z 29005KT 20/15 A3013 RMK A01 T02020147  RH  070%=      5-min Rain = 0
KAD1 031121Z 30005KT 20/15 A3013 RMK A01 T02030147  RH  070%=      5-min Rain = 0
KAD1 031122Z 30004KT 20/15 A3013 RMK A01 T02020147  RH  071%=      5-min Rain = 0
KAD1 031123Z 29004KT 20/15 A3013 RMK A01 T02010147  RH  071%=      5-min Rain = 0
KAD1 031124Z 28004KT 20/15 A3013 RMK A01 T02010147  RH  071%=      5-min Rain = 0
KAD1 031125Z 27004KT 20/15 A3013 RMK A01 T02010147  RH  071%=      5-min Rain = 0
KAD1 031126Z 27004KT 20/15 A3013 RMK A01 T02010146  RH  070%=      5-min Rain = 0
KAD1 031127Z 27004KT 20/15 A3013 RMK A01 T02020146  RH  070%=      5-min Rain = 0
KAD1 031128Z 29004KT 20/15 A3013 RMK A01 T02030146  RH  070%=      5-min Rain = 0
KAD1 031129Z 30004KT 20/15 A3013 RMK A01 T02030147  RH  070%=      5-min Rain = 0
KAD1 031130Z 30005KT 20/15 A3013 RMK A01 T02030146  RH  070%=      5-min Rain = 0
KAD1 031131Z 31004KT 20/15 A3013 RMK A01 T02020146  RH  070%=      5-min Rain = 0
KAD1 031132Z 31004KT 20/15 A3013 RMK A01 T02010146  RH  071%=      5-min Rain = 0
KAD1 031133Z 31004KT 20/15 A3013 RMK A01 T02000146  RH  071%=      5-min Rain = 0
KAD1 031134Z 32004KT 20/15 A3013 RMK A01 T02000147  RH  071%=      5-min Rain = 0
KAD1 031135Z 33005KT 20/15 A3013 RMK A01 T01990146  RH  071%=      5-min Rain = 0
KAD1 031136Z 34005KT 20/15 A3013 RMK A01 T01990146  RH  072%=      5-min Rain = 0
KAD1 031137Z 34005KT 20/15 A3013 RMK A01 T01980146  RH  072%=      5-min Rain = 0
KAD1 031138Z 34005KT 20/15 A3013 RMK A01 T01980146  RH  072%=      5-min Rain = 0
KAD1 031139Z 34005KT 20/15 A3013 RMK A01 T01970146  RH  072%=      5-min Rain = 0
KAD1 031140Z 34004KT 20/15 A3013 RMK A01 T01960146  RH  073%=      5-min Rain = 0
KAD1 031141Z 34004KT 20/15 A3013 RMK A01 T01960146  RH  073%=      5-min Rain = 0
KAD1 031142Z 33004KT 20/15 A3013 RMK A01 T01960146  RH  073%=      5-min Rain = 0
KAD1 031143Z 33004KT 20/15 A3013 RMK A01 T01950146  RH  073%=      5-min Rain = 0
KAD1 031144Z 32004KT 20/15 A3013 RMK A01 T01950147  RH  074%=      5-min Rain = 0
KAD1 031145Z 31004KT 20/15 A3013 RMK A01 T01950147  RH  074%=      5-min Rain = 0
KAD1 031146Z 31004KT 20/15 A3013 RMK A01 T01950147  RH  074%=      5-min Rain = 0
KAD1 031147Z 30004KT 20/15 A3013 RMK A01 T01950147  RH  074%=      5-min Rain = 0
KAD1 031148Z 29004KT 20/15 A3013 RMK A01 T01960147  RH  073%=      5-min Rain = 0
KAD1 031149Z 29004KT 20/15 A3013 RMK A01 T01950147  RH  073%=      5-min Rain = 0
KAD1 031150Z 29004KT 20/15 A3013 RMK A01 T01950147  RH  074%=      5-min Rain = 0
KAD1 031151Z 29004KT 19/15 A3013 RMK A01 T01940147  RH  074%=      5-min Rain = 0
KAD1 031152Z 29005KT 19/15 A3013 RMK A01 T01930146  RH  074%=      5-min Rain = 0
KAD1 031153Z 30005KT 19/15 A3013 RMK A01 T01930146  RH  074%=      5-min Rain = 0
KAD1 031154Z 30006KT 19/15 A3014 RMK A01 T01920147  RH  075%=      5-min Rain = 0
KAD1 031155Z 30007KT 19/15 A3014 RMK A01 T01930147  RH  075%=      5-min Rain = 0
KAD1 031156Z 31006KT 20/15 A3014 RMK A01 T01950148  RH  074%=      5-min Rain = 0
KAD1 031157Z 31006KT 20/15 A3014 RMK A01 T01960148  RH  074%=      5-min Rain = 0
KAD1 031158Z 31005KT 20/15 A3014 RMK A01 T01980149  RH  073%=      5-min Rain = 0
KAD1 031159Z 31005KT 20/15 A3014 RMK A01 T01980149  RH  073%=      5-min Rain = 0
KAD1 031200Z 31005KT 20/15 A3014 RMK A01 T01980149  RH  073%=      5-min Rain = 0
KAD1 031201Z 30005KT 20/15 A3014 RMK A01 T01980149  RH  073%=      5-min Rain = 0
KAD1 031202Z 30005KT 20/15 A3013 RMK A01 T01980149  RH  073%=      5-min Rain = 0
KAD1 031203Z 29004KT 20/15 A3013 RMK A01 T01980149  RH  073%=      5-min Rain = 0
KAD1 031204Z 28005KT 20/15 A3013 RMK A01 T01980149  RH  073%=      5-min Rain = 0
KAD1 031205Z 28005KT 20/15 A3013 RMK A01 T01980149  RH  073%=      5-min Rain = 0
KAD1 031206Z 27005KT 20/15 A3013 RMK A01 T01980149  RH  073%=      5-min Rain = 0
KAD1 031207Z 27004KT 20/15 A3013 RMK A01 T01970148  RH  073%=      5-min Rain = 0
KAD1 031208Z 26004KT 20/15 A3013 RMK A01 T01970148  RH  073%=      5-min Rain = 0
KAD1 031209Z 26004KT 20/15 A3013 RMK A01 T01970148  RH  073%=      5-min Rain = 0
KAD1 031210Z 25004KT 20/15 A3013 RMK A01 T01970148  RH  073%=      5-min Rain = 0
KAD1 031211Z 25004KT 20/15 A3013 RMK A01 T01970148  RH  073%=      5-min Rain = 0
KAD1 031212Z 25005KT 20/15 A3013 RMK A01 T01970148  RH  073%=      5-min Rain = 0
KAD1 031213Z 25005KT 20/15 A3013 RMK A01 T01970148  RH  073%=      5-min Rain = 0
KAD1 031214Z 26005KT 20/15 A3013 RMK A01 T01970148  RH  073%=      5-min Rain = 0
KAD1 031215Z 26005KT 20/15 A3013 RMK A01 T01980148  RH  073%=      5-min Rain = 0
KAD1 031216Z 26005KT 20/15 A3013 RMK A01 T01980148  RH  073%=      5-min Rain = 0
KAD1 031217Z 27005KT 20/15 A3013 RMK A01 T01980148  RH  073%=      5-min Rain = 0
KAD1 031218Z 27005KT 20/15 A3014 RMK A01 T01980148  RH  073%=      5-min Rain = 0
KAD1 031219Z 28006KT 20/15 A3014 RMK A01 T01980148  RH  073%=      5-min Rain = 0
KAD1 031220Z 28006KT 20/15 A3014 RMK A01 T02000149  RH  072%=      5-min Rain = 0
KAD1 031221Z 29006KT 20/15 A3014 RMK A01 T02010149  RH  072%=      5-min Rain = 0
KAD1 031222Z 29006KT 20/15 A3014 RMK A01 T02030149  RH  071%=      5-min Rain = 0
KAD1 031223Z 29006KT 20/15 A3014 RMK A01 T02040149  RH  071%=      5-min Rain = 0
KAD1 031224Z 29006KT 21/15 A3014 RMK A01 T02060150  RH  070%=      5-min Rain = 0
KAD1 031225Z 29006KT 21/15 A3014 RMK A01 T02080149  RH  069%=      5-min Rain = 0
KAD1 031226Z 29006KT 21/15 A3014 RMK A01 T02100149  RH  068%=      5-min Rain = 0
KAD1 031227Z 29006KT 21/15 A3014 RMK A01 T02110150  RH  068%=      5-min Rain = 0
KAD1 031228Z 29006KT 21/15 A3014 RMK A01 T02110149  RH  068%=      5-min Rain = 0
KAD1 031229Z 30006KT 21/15 A3014 RMK A01 T02130150  RH  067%=      5-min Rain = 0
KAD1 031230Z 29006KT 21/15 A3014 RMK A01 T02130150  RH  067%=      5-min Rain = 0
KAD1 031231Z 29006KT 21/15 A3014 RMK A01 T02130150  RH  067%=      5-min Rain = 0
KAD1 031232Z 29006KT 21/15 A3014 RMK A01 T02140150  RH  067%=      5-min Rain = 0
KAD1 031233Z 29006KT 21/15 A3014 RMK A01 T02140150  RH  067%=      5-min Rain = 0
KAD1 031234Z 29007KT 22/15 A3014 RMK A01 T02150149  RH  066%=      5-min Rain = 0
KAD1 031235Z 29007KT 22/15 A3014 RMK A01 T02160150  RH  066%=      5-min Rain = 0
KAD1 031236Z 29007KT 22/15 A3013 RMK A01 T02170150  RH  066%=      5-min Rain = 0
KAD1 031237Z 29007KT 22/15 A3013 RMK A01 T02170150  RH  066%=      5-min Rain = 0
KAD1 031238Z 29007KT 22/15 A3013 RMK A01 T02180150  RH  065%=      5-min Rain = 0
KAD1 031239Z 29007KT 22/15 A3013 RMK A01 T02190150  RH  065%=      5-min Rain = 0
KAD1 031240Z 29008KT 22/15 A3014 RMK A01 T02190150  RH  065%=      5-min Rain = 0
KAD1 031241Z 29007KT 22/15 A3014 RMK A01 T02190150  RH  065%=      5-min Rain = 0
KAD1 031242Z 29007KT 22/15 A3014 RMK A01 T02190151  RH  065%=      5-min Rain = 0
KAD1 031243Z 29009KT 22/15 A3014 RMK A01 T02210151  RH  065%=      5-min Rain = 0
KAD1 031244Z 29008KT 22/15 A3014 RMK A01 T02220151  RH  064%=      5-min Rain = 0
KAD1 031245Z 29008KT 22/15 A3014 RMK A01 T02230151  RH  064%=      5-min Rain = 0
KAD1 031246Z 29008KT 22/15 A3014 RMK A01 T02240152  RH  064%=      5-min Rain = 0
KAD1 031247Z 30008KT 23/15 A3014 RMK A01 T02250152  RH  063%=      5-min Rain = 0
KAD1 031248Z 30009KT 23/15 A3014 RMK A01 T02250152  RH  063%=      5-min Rain = 0
KAD1 031249Z 30008KT 23/15 A3014 RMK A01 T02260152  RH  063%=      5-min Rain = 0
KAD1 031250Z 29008KT 23/15 A3014 RMK A01 T02260152  RH  063%=      5-min Rain = 0
KAD1 031251Z 29008KT 23/15 A3014 RMK A01 T02270152  RH  063%=      5-min Rain = 0
KAD1 031252Z 29007KT 23/15 A3014 RMK A01 T02280152  RH  062%=      5-min Rain = 0
KAD1 031253Z 29008KT 23/15 A3014 RMK A01 T02280152  RH  062%=      5-min Rain = 0
KAD1 031254Z 29007KT 23/15 A3014 RMK A01 T02290153  RH  062%=      5-min Rain = 0
KAD1 031255Z 29007KT 23/15 A3014 RMK A01 T02290153  RH  062%=      5-min Rain = 0
KAD1 031256Z 30008KT 23/15 A3014 RMK A01 T02310154  RH  062%=      5-min Rain = 0
KAD1 031257Z 29008KT 23/15 A3014 RMK A01 T02300153  RH  062%=      5-min Rain = 0
KAD1 031258Z 29008KT 23/15 A3014 RMK A01 T02310153  RH  061%=      5-min Rain = 0
KAD1 031259Z 29008KT 23/15 A3014 RMK A01 T02310153  RH  061%=      5-min Rain = 0
KAD1 031300Z 30008KT 23/15 A3014 RMK A01 T02310153  RH  061%=      5-min Rain = 0
KAD1 031301Z 29008KT 23/15 A3014 RMK A01 T02320153  RH  061%=      5-min Rain = 0
KAD1 031302Z 30006KT 23/15 A3014 RMK A01 T02330153  RH  061%=      5-min Rain = 0
KAD1 031303Z 31007KT 23/15 A3014 RMK A01 T02330154  RH  061%=      5-min Rain = 0
KAD1 031304Z 31007KT 23/15 A3014 RMK A01 T02340154  RH  061%=      5-min Rain = 0
KAD1 031305Z 30006KT 23/15 A3014 RMK A01 T02340154  RH  061%=      5-min Rain = 0
KAD1 031306Z 31008KT 24/15 A3014 RMK A01 T02350154  RH  060%=      5-min Rain = 0
KAD1 031307Z 31008KT 24/15 A3015 RMK A01 T02360153  RH  060%=      5-min Rain = 0
KAD1 031308Z 31008KT 24/15 A3015 RMK A01 T02360154  RH  060%=      5-min Rain = 0
KAD1 031309Z 31006KT 24/15 A3015 RMK A01 T02360154  RH  060%=      5-min Rain = 0
KAD1 031310Z 32005KT 24/16 A3015 RMK A01 T02360155  RH  060%=      5-min Rain = 0
KAD1 031311Z 32006KT 24/16 A3015 RMK A01 T02370155  RH  060%=      5-min Rain = 0
KAD1 031312Z 32006KT 24/16 A3015 RMK A01 T02370155  RH  060%=      5-min Rain = 0
KAD1 031313Z 33006KT 24/15 A3015 RMK A01 T02370154  RH  060%=      5-min Rain = 0
KAD1 031314Z 33005KT 24/16 A3015 RMK A01 T02370155  RH  060%=      5-min Rain = 0
KAD1 031315Z 33005KT 24/15 A3015 RMK A01 T02380154  RH  059%=      5-min Rain = 0
KAD1 031316Z 34005KT 24/16 A3015 RMK A01 T02380155  RH  060%=      5-min Rain = 0
KAD1 031317Z 34005KT 24/16 A3016 RMK A01 T02380155  RH  060%=      5-min Rain = 0
KAD1 031318Z 35003KT 24/15 A3016 RMK A01 T02370154  RH  060%=      5-min Rain = 0
KAD1 031319Z 01004KT 24/15 A3016 RMK A01 T02380154  RH  059%=      5-min Rain = 0
KAD1 031320Z 02005KT 24/15 A3016 RMK A01 T02370153  RH  059%=      5-min Rain = 0
KAD1 031321Z 01004KT 24/15 A3016 RMK A01 T02370153  RH  059%=      5-min Rain = 0
KAD1 031322Z 01004KT 24/15 A3016 RMK A01 T02370153  RH  059%=      5-min Rain = 0
KAD1 031323Z 36004KT 24/15 A3016 RMK A01 T02370153  RH  059%=      5-min Rain = 0
KAD1 031324Z 01004KT 24/15 A3016 RMK A01 T02370153  RH  059%=      5-min Rain = 0
KAD1 031325Z 02005KT 24/15 A3016 RMK A01 T02370153  RH  059%=      5-min Rain = 0
KAD1 031326Z 01006KT 24/15 A3016 RMK A01 T02380154  RH  059%=      5-min Rain = 0
KAD1 031327Z 01004KT 24/16 A3016 RMK A01 T02390155  RH  059%=      5-min Rain = 0
KAD1 031328Z 01004KT 24/15 A3016 RMK A01 T02400154  RH  059%=      5-min Rain = 0
KAD1 031329Z 36004KT 24/15 A3016 RMK A01 T02400154  RH  059%=      5-min Rain = 0
KAD1 031330Z 35003KT 24/15 A3016 RMK A01 T02400154  RH  059%=      5-min Rain = 0
KAD1 031331Z 34003KT 24/15 A3016 RMK A01 T02390154  RH  059%=      5-min Rain = 0
KAD1 031332Z 33003KT 24/16 A3016 RMK A01 T02390155  RH  059%=      5-min Rain = 0
KAD1 031333Z 33003KT 24/16 A3016 RMK A01 T02400155  RH  059%=      5-min Rain = 0
KAD1 031334Z 33003KT 24/16 A3016 RMK A01 T02410155  RH  059%=      5-min Rain = 0
KAD1 031335Z 33004KT 24/16 A3016 RMK A01 T02400156  RH  059%=      5-min Rain = 0
KAD1 031336Z 34004KT 24/16 A3016 RMK A01 T02410156  RH  059%=      5-min Rain = 0
KAD1 031337Z 35004KT 24/16 A3016 RMK A01 T02410156  RH  059%=      5-min Rain = 0
KAD1 031338Z 35003KT 24/16 A3016 RMK A01 T02410156  RH  059%=      5-min Rain = 0
KAD1 031339Z 34004KT 24/16 A3016 RMK A01 T02410156  RH  059%=      5-min Rain = 0
KAD1 031340Z 00003KT 24/16 A3016 RMK A01 T02410156  RH  059%=      5-min Rain = 0
KAD1 031341Z 01004KT 24/16 A3016 RMK A01 T02410156  RH  059%=      5-min Rain = 0
KAD1 031342Z 02003KT 24/16 A3016 RMK A01 T02420157  RH  059%=      5-min Rain = 0
KAD1 031343Z 02003KT 24/16 A3016 RMK A01 T02420156  RH  059%=      5-min Rain = 0
KAD1 031344Z 34003KT 24/16 A3016 RMK A01 T02420157  RH  059%=      5-min Rain = 0
KAD1 031345Z 32004KT 24/16 A3016 RMK A01 T02440158  RH  059%=      5-min Rain = 0
KAD1 031346Z 31004KT 25/16 A3016 RMK A01 T02450158  RH  058%=      5-min Rain = 0
KAD1 031347Z 32003KT 24/16 A3016 RMK A01 T02430158  RH  059%=      5-min Rain = 0
KAD1 031348Z 32004KT 24/16 A3016 RMK A01 T02430157  RH  059%=      5-min Rain = 0
KAD1 031349Z 33005KT 24/16 A3016 RMK A01 T02430158  RH  059%=      5-min Rain = 0
KAD1 031350Z 35005KT 24/16 A3016 RMK A01 T02420158  RH  059%=      5-min Rain = 0
KAD1 031351Z 36005KT 24/16 A3016 RMK A01 T02430157  RH  059%=      5-min Rain = 0
KAD1 031352Z 36006KT 25/16 A3017 RMK A01 T02460158  RH  058%=      5-min Rain = 0
KAD1 031353Z 02007KT 25/16 A3017 RMK A01 T02460158  RH  058%=      5-min Rain = 0
KAD1 031354Z 02008KT 25/16 A3017 RMK A01 T02470157  RH  057%=      5-min Rain = 0
KAD1 031355Z 03008KT 25/16 A3017 RMK A01 T02470156  RH  057%=      5-min Rain = 0
KAD1 031356Z 03008KT 25/16 A3018 RMK A01 T02470156  RH  057%=      5-min Rain = 0
KAD1 031357Z 02008KT 25/16 A3018 RMK A01 T02470157  RH  057%=      5-min Rain = 0
KAD1 031358Z 04008KT 25/16 A3018 RMK A01 T02470158  RH  057%=      5-min Rain = 0
KAD1 031359Z 05009KT 25/16 A3018 RMK A01 T02490158  RH  057%=      5-min Rain = 0
KAD1 031400Z 05010KT 25/16 A3018 RMK A01 T02490158  RH  057%=      5-min Rain = 0
KAD1 031401Z 04010KT 25/16 A3018 RMK A01 T02490158  RH  057%=      5-min Rain = 0
KAD1 031402Z 04008KT 25/16 A3018 RMK A01 T02480157  RH  057%=      5-min Rain = 0
KAD1 031403Z 06005KT 25/16 A3018 RMK A01 T02470157  RH  057%=      5-min Rain = 0
KAD1 031404Z 03006KT 25/16 A3018 RMK A01 T02470158  RH  057%=      5-min Rain = 0
KAD1 031405Z 03004KT 25/16 A3018 RMK A01 T02490157  RH  056%=      5-min Rain = 0
KAD1 031406Z 05006KT 25/16 A3018 RMK A01 T02490156  RH  056%=      5-min Rain = 0
KAD1 031407Z 06005KT 25/16 A3018 RMK A01 T02490156  RH  056%=      5-min Rain = 0
KAD1 031408Z 06004KT 25/16 A3018 RMK A01 T02470155  RH  057%=      5-min Rain = 0
KAD1 031409Z 03006KT 25/16 A3018 RMK A01 T02470155  RH  057%=      5-min Rain = 0
KAD1 031410Z 03005KT 25/15 A3018 RMK A01 T02470154  RH  056%=      5-min Rain = 0
KAD1 031411Z 04004KT 25/15 A3018 RMK A01 T02480154  RH  056%=      5-min Rain = 0
KAD1 031412Z 02004KT 25/16 A3018 RMK A01 T02490155  RH  056%=      5-min Rain = 0
KAD1 031413Z 00005KT 25/16 A3018 RMK A01 T02500155  RH  056%=      5-min Rain = 0
KAD1 031414Z 01004KT 25/16 A3018 RMK A01 T02490155  RH  056%=      5-min Rain = 0
KAD1 031415Z 02005KT 25/16 A3018 RMK A01 T02490155  RH  056%=      5-min Rain = 0
KAD1 031416Z 05005KT 25/16 A3018 RMK A01 T02480155  RH  056%=      5-min Rain = 0
KAD1 031417Z 06005KT 25/16 A3018 RMK A01 T02500156  RH  056%=      5-min Rain = 0
KAD1 031418Z 04004KT 25/16 A3018 RMK A01 T02510156  RH  055%=      5-min Rain = 0
KAD1 031419Z 04005KT 25/16 A3018 RMK A01 T02520156  RH  055%=      5-min Rain = 0
KAD1 031420Z 04005KT 25/16 A3018 RMK A01 T02540157  RH  055%=      5-min Rain = 0
KAD1 031421Z 04006KT 26/16 A3018 RMK A01 T02560157  RH  054%=      5-min Rain = 0
KAD1 031422Z 04007KT 26/16 A3018 RMK A01 T02570156  RH  053%=      5-min Rain = 0
KAD1 031423Z 05007KT 26/16 A3018 RMK A01 T02570157  RH  054%=      5-min Rain = 0
KAD1 031424Z 05007KT 26/16 A3018 RMK A01 T02570158  RH  054%=      5-min Rain = 0
KAD1 031425Z 04006KT 26/16 A3018 RMK A01 T02570157  RH  054%=      5-min Rain = 0
KAD1 031426Z 03006KT 26/16 A3018 RMK A01 T02580156  RH  053%=      5-min Rain = 0
KAD1 031427Z 01003KT 26/16 A3018 RMK A01 T02580157  RH  054%=      5-min Rain = 0
KAD1 031428Z 02003KT 26/16 A3018 RMK A01 T02590157  RH  053%=      5-min Rain = 0
KAD1 031429Z 03003KT 26/16 A3017 RMK A01 T02590156  RH  053%=      5-min Rain = 0
KAD1 031430Z 03003KT 26/16 A3017 RMK A01 T02580156  RH  053%=      5-min Rain = 0
KAD1 031431Z 05002KT 26/16 A3017 RMK A01 T02590156  RH  053%=      5-min Rain = 0
KAD1 031432Z 09002KT 26/16 A3017 RMK A01 T02590156  RH  053%=      5-min Rain = 0
KAD1 031433Z 10002KT 26/15 A3018 RMK A01 T02590154  RH  052%=      5-min Rain = 0
KAD1 031434Z 10002KT 26/15 A3018 RMK A01 T02590152  RH  052%=      5-min Rain = 0
KAD1 031435Z 08003KT 26/15 A3018 RMK A01 T02600152  RH  051%=      5-min Rain = 0
KAD1 031436Z 09003KT 26/15 A3018 RMK A01 T02600154  RH  052%=      5-min Rain = 0
KAD1 031437Z 10005KT 26/16 A3018 RMK A01 T02610155  RH  052%=      5-min Rain = 0
KAD1 031438Z 09005KT 26/16 A3018 RMK A01 T02610156  RH  052%=      5-min Rain = 0
KAD1 031439Z 09005KT 26/16 A3018 RMK A01 T02610156  RH  052%=      5-min Rain = 0
KAD1 031440Z 08002KT 26/16 A3018 RMK A01 T02600156  RH  052%=      5-min Rain = 0
KAD1 031441Z 08002KT 26/16 A3018 RMK A01 T02610155  RH  052%=      5-min Rain = 0
KAD1 031442Z 08001KT 26/16 A3018 RMK A01 T02600155  RH  052%=      5-min Rain = 0
KAD1 031443Z 01001KT 26/15 A3017 RMK A01 T02600154  RH  052%=      5-min Rain = 0
KAD1 031444Z 01001KT 26/16 A3017 RMK A01 T02620155  RH  052%=      5-min Rain = 0
KAD1 031445Z 04002KT 26/16 A3017 RMK A01 T02620155  RH  052%=      5-min Rain = 0
KAD1 031446Z 05002KT 26/16 A3017 RMK A01 T02630155  RH  052%=      5-min Rain = 0
KAD1 031447Z 03003KT 26/16 A3017 RMK A01 T02640155  RH  051%=      5-min Rain = 0
KAD1 031448Z 02003KT 26/15 A3018 RMK A01 T02640154  RH  051%=      5-min Rain = 0
KAD1 031449Z 04001KT 26/15 A3018 RMK A01 T02640154  RH  051%=      5-min Rain = 0
KAD1 031450Z 08002KT 26/15 A3018 RMK A01 T02640153  RH  050%=      5-min Rain = 0
KAD1 031451Z 10001KT 26/15 A3018 RMK A01 T02640152  RH  050%=      5-min Rain = 0
KAD1 031452Z 11001KT 27/15 A3018 RMK A01 T02650150  RH  049%=      5-min Rain = 0
KAD1 031453Z 11001KT 27/15 A3018 RMK A01 T02680152  RH  049%=      5-min Rain = 0
KAD1 031454Z 09001KT 27/15 A3018 RMK A01 T02680149  RH  048%=      5-min Rain = 0
KAD1 031455Z 11001KT 27/15 A3018 RMK A01 T02690150  RH  048%=      5-min Rain = 0
KAD1 031456Z 12005KT 27/15 A3018 RMK A01 T02710154  RH  049%=      5-min Rain = 0
KAD1 031457Z 14003KT 27/16 A3018 RMK A01 T02700156  RH  049%=      5-min Rain = 0
KAD1 031458Z 13004KT 27/16 A3018 RMK A01 T02700155  RH  049%=      5-min Rain = 0
KAD1 031459Z 13002KT 27/15 A3018 RMK A01 T02690154  RH  049%=      5-min Rain = 0
KAD1 031500Z 11002KT 27/15 A3018 RMK A01 T02670154  RH  050%=      5-min Rain = 0
KAD1 031501Z 12002KT 27/15 A3018 RMK A01 T02670154  RH  050%=      5-min Rain = 0
KAD1 031502Z 13003KT 27/15 A3018 RMK A01 T02670154  RH  050%=      5-min Rain = 0
KAD1 031503Z 14003KT 27/16 A3018 RMK A01 T02680155  RH  050%=      5-min Rain = 0
KAD1 031504Z 14003KT 27/15 A3018 RMK A01 T02690154  RH  049%=      5-min Rain = 0
KAD1 031505Z 13003KT 27/15 A3018 RMK A01 T02690154  RH  049%=      5-min Rain = 0
KAD1 031506Z 13005KT 27/15 A3018 RMK A01 T02680153  RH  049%=      5-min Rain = 0
KAD1 031507Z 11004KT 27/15 A3018 RMK A01 T02670153  RH  049%=      5-min Rain = 0
KAD1 031508Z 12003KT 27/15 A3018 RMK A01 T02670154  RH  050%=      5-min Rain = 0
KAD1 031509Z 10003KT 27/16 A3018 RMK A01 T02670155  RH  050%=      5-min Rain = 0
KAD1 031510Z 10003KT 27/15 A3018 RMK A01 T02690154  RH  049%=      5-min Rain = 0
KAD1 031511Z 12003KT 27/16 A3018 RMK A01 T02700155  RH  049%=      5-min Rain = 0
KAD1 031512Z 07005KT 27/16 A3018 RMK A01 T02720157  RH  049%=      5-min Rain = 0
KAD1 031513Z 08004KT 27/16 A3018 RMK A01 T02720157  RH  049%=      5-min Rain = 0
KAD1 031514Z 14004KT 27/16 A3018 RMK A01 T02710156  RH  049%=      5-min Rain = 0
KAD1 031515Z 13004KT 27/16 A3018 RMK A01 T02700155  RH  049%=      5-min Rain = 0
KAD1 031516Z 09007KT 27/16 A3019 RMK A01 T02710155  RH  049%=      5-min Rain = 0
KAD1 031517Z 09006KT 27/15 A3019 RMK A01 T02700153  RH  049%=      5-min Rain = 0
KAD1 031518Z 06004KT 27/15 A3019 RMK A01 T02670153  RH  049%=      5-min Rain = 0
KAD1 031519Z 10005KT 27/15 A3018 RMK A01 T02670154  RH  050%=      5-min Rain = 0
KAD1 031520Z 10008KT 27/16 A3018 RMK A01 T02700157  RH  050%=      5-min Rain = 0
KAD1 031521Z 11009KT 27/16 A3019 RMK A01 T02740155  RH  048%=      5-min Rain = 0
KAD1 031522Z 10006KT 27/15 A3019 RMK A01 T02720154  RH  048%=      5-min Rain = 0
KAD1 031523Z 11007KT 27/15 A3018 RMK A01 T02710154  RH  049%=      5-min Rain = 0
KAD1 031524Z 11006KT 27/15 A3018 RMK A01 T02710153  RH  048%=      5-min Rain = 0
KAD1 031525Z 11008KT 27/15 A3018 RMK A01 T02730153  RH  048%=      5-min Rain = 0
KAD1 031526Z 10007KT 27/15 A3018 RMK A01 T02740152  RH  047%=      5-min Rain = 0
KAD1 031527Z 08004KT 27/15 A3018 RMK A01 T02730151  RH  047%=      5-min Rain = 0
KAD1 031528Z 06003KT 27/15 A3018 RMK A01 T02720151  RH  048%=      5-min Rain = 0
KAD1 031529Z 12006KT 27/15 A3018 RMK A01 T02740152  RH  047%=      5-min Rain = 0
KAD1 031530Z 11007KT 28/15 A3018 RMK A01 T02760151  RH  046%=      5-min Rain = 0
KAD1 031531Z 11005KT 28/15 A3018 RMK A01 T02770147  RH  045%=      5-min Rain = 0
KAD1 031532Z 11006KT 28/15 A3018 RMK A01 T02750148  RH  046%=      5-min Rain = 0
KAD1 031533Z 10006KT 27/15 A3018 RMK A01 T02730151  RH  047%=      5-min Rain = 0
KAD1 031534Z 11008KT 27/15 A3018 RMK A01 T02730150  RH  047%=      5-min Rain = 0
KAD1 031535Z 10006KT 27/15 A3018 RMK A01 T02730150  RH  047%=      5-min Rain = 0
KAD1 031536Z 12005KT 27/15 A3018 RMK A01 T02740149  RH  046%=      5-min Rain = 0
KAD1 031537Z 12006KT 27/15 A3018 RMK A01 T02740148  RH  046%=      5-min Rain = 0
KAD1 031538Z 11005KT 28/15 A3018 RMK A01 T02750147  RH  045%=      5-min Rain = 0
KAD1 031539Z 12006KT 28/15 A3018 RMK A01 T02760146  RH  045%=      5-min Rain = 0
KAD1 031540Z 14005KT 28/15 A3018 RMK A01 T02770145  RH  045%=      5-min Rain = 0
KAD1 031541Z 11004KT 28/15 A3018 RMK A01 T02760147  RH  045%=      5-min Rain = 0
KAD1 031542Z 17002KT 28/15 A3018 RMK A01 T02780147  RH  045%=      5-min Rain = 0
KAD1 031543Z 10004KT 28/15 A3018 RMK A01 T02800148  RH  045%=      5-min Rain = 0
KAD1 031544Z 10004KT 28/15 A3018 RMK A01 T02800148  RH  044%=      5-min Rain = 0
KAD1 031545Z 11003KT 28/15 A3018 RMK A01 T02800148  RH  045%=      5-min Rain = 0
KAD1 031546Z 08005KT 28/15 A3018 RMK A01 T02790147  RH  045%=      5-min Rain = 0
KAD1 031547Z 08002KT 28/15 A3018 RMK A01 T02800147  RH  044%=      5-min Rain = 0
KAD1 031548Z 08005KT 28/15 A3018 RMK A01 T02810146  RH  044%=      5-min Rain = 0
KAD1 031549Z 09003KT 28/15 A3018 RMK A01 T02810146  RH  044%=      5-min Rain = 0
KAD1 031550Z 08004KT 28/15 A3018 RMK A01 T02830148  RH  044%=      5-min Rain = 0
KAD1 031551Z 06007KT 28/15 A3018 RMK A01 T02840146  RH  043%=      5-min Rain = 0
KAD1 031552Z 08003KT 29/15 A3019 RMK A01 T02850146  RH  043%=      5-min Rain = 0
KAD1 031553Z 08005KT 29/15 A3019 RMK A01 T02850146  RH  043%=      5-min Rain = 0
KAD1 031554Z 10008KT 28/15 A3019 RMK A01 T02840149  RH  044%=      5-min Rain = 0
KAD1 031555Z 10007KT 28/15 A3019 RMK A01 T02840148  RH  044%=      5-min Rain = 0
KAD1 031556Z 10006KT 28/15 A3019 RMK A01 T02830147  RH  043%=      5-min Rain = 0
KAD1 031557Z 08005KT 28/15 A3019 RMK A01 T02840146  RH  043%=      5-min Rain = 0
KAD1 031558Z 08003KT 28/14 A3018 RMK A01 T02830144  RH  043%=      5-min Rain = 0
KAD1 031559Z 08006KT 28/15 A3018 RMK A01 T02830145  RH  043%=      5-min Rain = 0
KAD1 031600Z 10011KT 29/15 A3018 RMK A01 T02850148  RH  043%=      5-min Rain = 0
KAD1 031601Z 09009KT 29/15 A3018 RMK A01 T02880149  RH  043%=      5-min Rain = 0
KAD1 031602Z 11008KT 29/15 A3018 RMK A01 T02850146  RH  043%=      5-min Rain = 0
KAD1 031603Z 12007KT 28/15 A3018 RMK A01 T02840146  RH  043%=      5-min Rain = 0
KAD1 031604Z 11007KT 28/15 A3018 RMK A01 T02830146  RH  043%=      5-min Rain = 0
KAD1 031605Z 10006KT 29/15 A3018 RMK A01 T02850145  RH  042%=      5-min Rain = 0
KAD1 031606Z 12006KT 28/14 A3018 RMK A01 T02840144  RH  042%=      5-min Rain = 0
KAD1 031607Z 13005KT 28/14 A3018 RMK A01 T02830143  RH  042%=      5-min Rain = 0
KAD1 031608Z 14004KT 28/14 A3018 RMK A01 T02840143  RH  042%=      5-min Rain = 0
KAD1 031609Z 12002KT 29/14 A3018 RMK A01 T02850143  RH  042%=      5-min Rain = 0
KAD1 031610Z 11006KT 29/14 A3018 RMK A01 T02870143  RH  041%=      5-min Rain = 0
KAD1 031611Z 14003KT 29/14 A3018 RMK A01 T02870141  RH  041%=      5-min Rain = 0
KAD1 031612Z 20001KT 29/14 A3018 RMK A01 T02860143  RH  042%=      5-min Rain = 0
KAD1 031613Z 09003KT 29/14 A3018 RMK A01 T02860143  RH  042%=      5-min Rain = 0
KAD1 031614Z 14004KT 29/14 A3018 RMK A01 T02880143  RH  041%=      5-min Rain = 0
KAD1 031615Z 13007KT 29/15 A3018 RMK A01 T02890145  RH  041%=      5-min Rain = 0
KAD1 031616Z 13008KT 29/14 A3018 RMK A01 T02910144  RH  041%=      5-min Rain = 0
KAD1 031617Z 12006KT 29/14 A3019 RMK A01 T02920143  RH  040%=      5-min Rain = 0
KAD1 031618Z 10005KT 29/14 A3019 RMK A01 T02900142  RH  040%=      5-min Rain = 0
KAD1 031619Z 10005KT 29/14 A3019 RMK A01 T02900141  RH  040%=      5-min Rain = 0
KAD1 031620Z 11005KT 29/14 A3019 RMK A01 T02900141  RH  040%=      5-min Rain = 0
KAD1 031621Z 10005KT 29/14 A3019 RMK A01 T02900142  RH  040%=      5-min Rain = 0
KAD1 031622Z 08004KT 29/14 A3019 RMK A01 T02880142  RH  041%=      5-min Rain = 0
KAD1 031623Z 07003KT 29/14 A3019 RMK A01 T02880142  RH  041%=      5-min Rain = 0
KAD1 031624Z 07004KT 29/14 A3019 RMK A01 T02880143  RH  041%=      5-min Rain = 0
KAD1 031625Z 08002KT 29/14 A3019 RMK A01 T02900143  RH  041%=      5-min Rain = 0
KAD1 031626Z 11003KT 29/14 A3019 RMK A01 T02910144  RH  041%=      5-min Rain = 0
KAD1 031627Z 11009KT 30/14 A3019 RMK A01 T02960144  RH  040%=      5-min Rain = 0
KAD1 031628Z 12009KT 30/14 A3019 RMK A01 T02990141  RH  038%=      5-min Rain = 0
KAD1 031629Z 11005KT 30/14 A3019 RMK A01 T02960140  RH  038%=      5-min Rain = 0
KAD1 031630Z 11007KT 30/14 A3019 RMK A01 T02960141  RH  039%=      5-min Rain = 0
KAD1 031631Z 11006KT 30/14 A3019 RMK A01 T02980140  RH  038%=      5-min Rain = 0
KAD1 031632Z 12004KT 30/14 A3019 RMK A01 T02970140  RH  038%=      5-min Rain = 0
KAD1 031633Z 13006KT 30/14 A3019 RMK A01 T02970140  RH  038%=      5-min Rain = 0
KAD1 031634Z 16008KT 30/14 A3019 RMK A01 T02980139  RH  038%=      5-min Rain = 0
KAD1 031635Z 17007KT 30/14 A3019 RMK A01 T03000139  RH  037%=      5-min Rain = 0
KAD1 031636Z 18007KT 30/14 A3019 RMK A01 T03020139  RH  037%=      5-min Rain = 0
KAD1 031637Z 15005KT 30/14 A3019 RMK A01 T03030138  RH  036%=      5-min Rain = 0
KAD1 031638Z 14005KT 30/14 A3019 RMK A01 T03030137  RH  036%=      5-min Rain = 0
KAD1 031639Z 12005KT 30/14 A3019 RMK A01 T03020135  RH  036%=      5-min Rain = 0
KAD1 031640Z 11003KT 30/13 A3019 RMK A01 T02970132  RH  036%=      5-min Rain = 0
KAD1 031641Z 15002KT 30/13 A3019 RMK A01 T02950133  RH  037%=      5-min Rain = 0
KAD1 031642Z 18001KT 30/13 A3019 RMK A01 T02950134  RH  037%=      5-min Rain = 0
KAD1 031643Z 19001KT 30/13 A3019 RMK A01 T02950134  RH  037%=      5-min Rain = 0
KAD1 031644Z 18005KT 30/14 A3019 RMK A01 T02970136  RH  037%=      5-min Rain = 0
KAD1 031645Z 18005KT 30/13 A3019 RMK A01 T03000133  RH  036%=      5-min Rain = 0
KAD1 031646Z 17004KT 30/13 A3019 RMK A01 T02990133  RH  036%=      5-min Rain = 0
KAD1 031647Z 14003KT 30/13 A3019 RMK A01 T02970134  RH  037%=      5-min Rain = 0
KAD1 031648Z 12002KT 30/13 A3019 RMK A01 T02970132  RH  036%=      5-min Rain = 0
KAD1 031649Z 10003KT 30/13 A3019 RMK A01 T02980134  RH  037%=      5-min Rain = 0
KAD1 031650Z 08007KT 30/13 A3019 RMK A01 T03010133  RH  036%=      5-min Rain = 0
KAD1 031651Z 08005KT 30/13 A3019 RMK A01 T03020132  RH  035%=      5-min Rain = 0
KAD1 031652Z 15007KT 30/13 A3019 RMK A01 T03020132  RH  035%=      5-min Rain = 0
KAD1 031653Z 16009KT 31/13 A3019 RMK A01 T03050129  RH  034%=      5-min Rain = 0
KAD1 031654Z 16008KT 31/13 A3019 RMK A01 T03050128  RH  034%=      5-min Rain = 0
KAD1 031655Z 13004KT 30/13 A3018 RMK A01 T03030128  RH  034%=      5-min Rain = 0
KAD1 031656Z 13005KT 30/13 A3018 RMK A01 T03030129  RH  034%=      5-min Rain = 0
KAD1 031657Z 16007G12KT 31/13 A3018 RMK A01 T03060129  RH  034%=      5-min Rain = 0
KAD1 031658Z 17011KT 31/13 A3018 RMK A01 T03080130  RH  034%=      5-min Rain = 0
KAD1 031659Z 16011KT 31/13 A3018 RMK A01 T03100129  RH  033%=      5-min Rain = 0
KAD1 031700Z 16008KT 31/13 A3018 RMK A01 T03080126  RH  033%=      5-min Rain = 0
KAD1 031701Z 17006KT 31/13 A3018 RMK A01 T03050127  RH  034%=      5-min Rain = 0
KAD1 031702Z 22004KT 30/13 A3018 RMK A01 T03040127  RH  034%=      5-min Rain = 0
KAD1 031703Z 20004KT 30/13 A3018 RMK A01 T03040127  RH  034%=      5-min Rain = 0
KAD1 031704Z 17002KT 31/13 A3018 RMK A01 T03050126  RH  033%=      5-min Rain = 0
KAD1 031705Z 14007KT 31/13 A3018 RMK A01 T03060128  RH  034%=      5-min Rain = 0
KAD1 031706Z 14005KT 31/13 A3018 RMK A01 T03090126  RH  033%=      5-min Rain = 0
KAD1 031707Z 16007KT 31/13 A3018 RMK A01 T03100129  RH  033%=      5-min Rain = 0
KAD1 031708Z 15007KT 31/13 A3018 RMK A01 T03130128  RH  032%=      5-min Rain = 0
KAD1 031709Z 13009KT 31/13 A3018 RMK A01 T03140129  RH  032%=      5-min Rain = 0
KAD1 031710Z 15010KT 31/13 A3018 RMK A01 T03140129  RH  032%=      5-min Rain = 0
KAD1 031711Z 14010KT 32/13 A3018 RMK A01 T03160129  RH  032%=      5-min Rain = 0
KAD1 031712Z 12004KT 31/13 A3018 RMK A01 T03110125  RH  032%=      5-min Rain = 0
KAD1 031713Z 13004KT 31/13 A3018 RMK A01 T03070128  RH  033%=      5-min Rain = 0
KAD1 031714Z 11007KT 31/13 A3018 RMK A01 T03070127  RH  033%=      5-min Rain = 0
KAD1 031715Z 08008KT 31/13 A3018 RMK A01 T03050127  RH  033%=      5-min Rain = 0
KAD1 031716Z 13009KT 31/13 A3018 RMK A01 T03050127  RH  034%=      5-min Rain = 0
KAD1 031717Z 13008KT 31/13 A3018 RMK A01 T03070128  RH  034%=      5-min Rain = 0
KAD1 031718Z 11006KT 31/13 A3018 RMK A01 T03090127  RH  033%=      5-min Rain = 0
KAD1 031719Z 13007KT 31/13 A3017 RMK A01 T03090128  RH  033%=      5-min Rain = 0
KAD1 031720Z 14008G13KT 31/13 A3017 RMK A01 T03100128  RH  033%=      5-min Rain = 0
KAD1 031721Z 16011KT 31/13 A3017 RMK A01 T03110127  RH  032%=      5-min Rain = 0
KAD1 031722Z 17008KT 31/13 A3017 RMK A01 T03110126  RH  032%=      5-min Rain = 0
KAD1 031723Z 17009KT 31/13 A3017 RMK A01 T03100127  RH  033%=      5-min Rain = 0
KAD1 031724Z 18006KT 31/13 A3017 RMK A01 T03090126  RH  032%=      5-min Rain = 0
KAD1 031725Z 17007KT 31/13 A3017 RMK A01 T03090127  RH  033%=      5-min Rain = 0
KAD1 031726Z 18004KT 31/13 A3017 RMK A01 T03100127  RH  033%=      5-min Rain = 0
KAD1 031727Z 14008G13KT 31/13 A3017 RMK A01 T03100129  RH  033%=      5-min Rain = 0
KAD1 031728Z 14010KT 31/13 A3017 RMK A01 T03140129  RH  032%=      5-min Rain = 0
KAD1 031729Z 14009KT 32/13 A3017 RMK A01 T03150127  RH  032%=      5-min Rain = 0
KAD1 031730Z 11008KT 31/13 A3017 RMK A01 T03130128  RH  032%=      5-min Rain = 0
KAD1 031731Z 12007KT 31/13 A3017 RMK A01 T03130126  RH  032%=      5-min Rain = 0
KAD1 031732Z 14006KT 31/13 A3017 RMK A01 T03110126  RH  032%=      5-min Rain = 0
KAD1 031733Z 16006KT 31/13 A3017 RMK A01 T03110126  RH  032%=      5-min Rain = 0
KAD1 031734Z 17005KT 31/13 A3017 RMK A01 T03100125  RH  032%=      5-min Rain = 0
KAD1 031735Z 17006KT 31/13 A3017 RMK A01 T03090125  RH  032%=      5-min Rain = 0
KAD1 031736Z 14007KT 31/13 A3017 RMK A01 T03080125  RH  033%=      5-min Rain = 0
KAD1 031737Z 14005KT 31/13 A3017 RMK A01 T03090125  RH  032%=      5-min Rain = 0
KAD1 031738Z 14005KT 31/13 A3017 RMK A01 T03090126  RH  033%=      5-min Rain = 0
KAD1 031739Z 13003KT 31/13 A3017 RMK A01 T03100125  RH  032%=      5-min Rain = 0
KAD1 031740Z 15008KT 31/13 A3017 RMK A01 T03100125  RH  032%=      5-min Rain = 0
KAD1 031741Z 15008KT 31/13 A3017 RMK A01 T03110125  RH  032%=      5-min Rain = 0
KAD1 031742Z 17006KT 31/12 A3017 RMK A01 T03100124  RH  032%=      5-min Rain = 0
KAD1 031743Z 14005KT 31/13 A3017 RMK A01 T03100125  RH  032%=      5-min Rain = 0
KAD1 031744Z 15004KT 31/13 A3017 RMK A01 T03110125  RH  032%=      5-min Rain = 0
KAD1 031745Z 20004KT 31/13 A3017 RMK A01 T03130125  RH  032%=      5-min Rain = 0
KAD1 031746Z 20005KT 31/12 A3017 RMK A01 T03130124  RH  032%=      5-min Rain = 0
KAD1 031747Z 20006KT 31/12 A3017 RMK A01 T03110124  RH  032%=      5-min Rain = 0
KAD1 031748Z 20005KT 31/12 A3017 RMK A01 T03110124  RH  032%=      5-min Rain = 0
KAD1 031749Z 19007KT 31/12 A3017 RMK A01 T03110124  RH  032%=      5-min Rain = 0
KAD1 031750Z 18005KT 31/12 A3017 RMK A01 T03130124  RH  032%=      5-min Rain = 0
KAD1 031751Z 15007KT 31/13 A3017 RMK A01 T03130125  RH  032%=      5-min Rain = 0
KAD1 031752Z 16006KT 31/12 A3017 RMK A01 T03140123  RH  031%=      5-min Rain = 0
KAD1 031753Z 11004KT 31/12 A3017 RMK A01 T03130124  RH  032%=      5-min Rain = 0
KAD1 031754Z 11008KT 31/12 A3017 RMK A01 T03140124  RH  031%=      5-min Rain = 0
KAD1 031755Z 11010KT 32/13 A3017 RMK A01 T03170125  RH  031%=      5-min Rain = 0
KAD1 031756Z 10012KT 32/12 A3017 RMK A01 T03190124  RH  030%=      5-min Rain = 0
KAD1 031757Z 12010KT 32/12 A3017 RMK A01 T03170122  RH  030%=      5-min Rain = 0
KAD1 031758Z 10007KT 32/12 A3017 RMK A01 T03160122  RH  031%=      5-min Rain = 0
KAD1 031759Z 10005KT 32/12 A3017 RMK A01 T03150124  RH  031%=      5-min Rain = 0
KAD1 031800Z 13003KT 32/12 A3017 RMK A01 T03170123  RH  030%=      5-min Rain = 0
KAD1 031801Z 16003KT 32/12 A3017 RMK A01 T03180122  RH  030%=      5-min Rain = 0
KAD1 031802Z 18006KT 32/12 A3017 RMK A01 T03200123  RH  030%=      5-min Rain = 0
KAD1 031803Z 15008KT 32/13 A3017 RMK A01 T03200125  RH  030%=      5-min Rain = 0
KAD1 031804Z 13005KT 32/12 A3017 RMK A01 T03180123  RH  030%=      5-min Rain = 0
KAD1 031805Z 11001KT 32/12 A3017 RMK A01 T03160122  RH  031%=      5-min Rain = 0
KAD1 031806Z 12008KT 32/12 A3017 RMK A01 T03150123  RH  031%=      5-min Rain = 0
KAD1 031807Z 11010KT 32/13 A3017 RMK A01 T03210125  RH  030%=      5-min Rain = 0
KAD1 031808Z 12010KT 32/12 A3017 RMK A01 T03230124  RH  030%=      5-min Rain = 0
KAD1 031809Z 12010KT 32/12 A3017 RMK A01 T03210123  RH  030%=      5-min Rain = 0
KAD1 031810Z 13009KT 32/12 A3017 RMK A01 T03200121  RH  030%=      5-min Rain = 0
KAD1 031811Z 10009KT 32/12 A3017 RMK A01 T03220123  RH  030%=      5-min Rain = 0
KAD1 031812Z 09009KT 32/12 A3017 RMK A01 T03240122  RH  029%=      5-min Rain = 0
KAD1 031813Z 13008KT 33/12 A3017 RMK A01 T03250123  RH  029%=      5-min Rain = 0
KAD1 031814Z 14009KT 32/12 A3017 RMK A01 T03240122  RH  029%=      5-min Rain = 0
KAD1 031815Z 13010KT 32/12 A3017 RMK A01 T03220122  RH  029%=      5-min Rain = 0
KAD1 031816Z 12011KT 33/12 A3017 RMK A01 T03250122  RH  029%=      5-min Rain = 0
KAD1 031817Z 11010KT 33/12 A3017 RMK A01 T03260123  RH  029%=      5-min Rain = 0
KAD1 031818Z 11010KT 33/12 A3017 RMK A01 T03270121  RH  029%=      5-min Rain = 0
KAD1 031819Z 12004KT 32/12 A3017 RMK A01 T03240118  RH  028%=      5-min Rain = 0
KAD1 031820Z 13004KT 32/12 A3017 RMK A01 T03220119  RH  029%=      5-min Rain = 0
KAD1 031821Z 14007KT 32/12 A3016 RMK A01 T03220119  RH  029%=      5-min Rain = 0
KAD1 031822Z 13006KT 32/12 A3016 RMK A01 T03210119  RH  029%=      5-min Rain = 0
KAD1 031823Z 14005KT 32/12 A3016 RMK A01 T03210119  RH  029%=      5-min Rain = 0
KAD1 031824Z 12010KT 32/12 A3016 RMK A01 T03220121  RH  029%=      5-min Rain = 0
KAD1 031825Z 11010KT 32/12 A3016 RMK A01 T03230121  RH  029%=      5-min Rain = 0
KAD1 031826Z 12010KT 32/12 A3016 RMK A01 T03230121  RH  029%=      5-min Rain = 0
KAD1 031827Z 13012KT 32/12 A3016 RMK A01 T03240119  RH  029%=      5-min Rain = 0
KAD1 031828Z 14009KT 32/12 A3016 RMK A01 T03230117  RH  028%=      5-min Rain = 0
KAD1 031829Z 12012KT 32/12 A3016 RMK A01 T03210119  RH  029%=      5-min Rain = 0
KAD1 031830Z 13008KT 32/12 A3016 RMK A01 T03210120  RH  029%=      5-min Rain = 0
KAD1 031831Z 11008KT 32/12 A3016 RMK A01 T03220120  RH  029%=      5-min Rain = 0
KAD1 031832Z 08006KT 32/12 A3016 RMK A01 T03220119  RH  029%=      5-min Rain = 0
KAD1 031833Z 09006KT 32/12 A3016 RMK A01 T03200119  RH  029%=      5-min Rain = 0
KAD1 031834Z 15004KT 32/12 A3016 RMK A01 T03210121  RH  030%=      5-min Rain = 0
KAD1 031835Z 15008KT 32/12 A3016 RMK A01 T03210123  RH  030%=      5-min Rain = 0
KAD1 031836Z 15006G11KT 32/12 A3016 RMK A01 T03230123  RH  029%=      5-min Rain = 0
KAD1 031837Z 13006KT 32/12 A3016 RMK A01 T03210123  RH  030%=      5-min Rain = 0
KAD1 031838Z 10006KT 32/13 A3016 RMK A01 T03220125  RH  030%=      5-min Rain = 0
KAD1 031839Z 10007KT 32/13 A3015 RMK A01 T03230126  RH  030%=      5-min Rain = 0
KAD1 031840Z 09012KT 33/13 A3015 RMK A01 T03260127  RH  030%=      5-min Rain = 0
KAD1 031841Z 12011KT 33/13 A3015 RMK A01 T03260126  RH  030%=      5-min Rain = 0
KAD1 031842Z 15010KT 33/13 A3015 RMK A01 T03260126  RH  030%=      5-min Rain = 0
KAD1 031843Z 15012KT 33/13 A3015 RMK A01 T03250125  RH  030%=      5-min Rain = 0
KAD1 031844Z 14012KT 33/12 A3015 RMK A01 T03280123  RH  029%=      5-min Rain = 0
KAD1 031845Z 16009KT 33/12 A3015 RMK A01 T03280121  RH  029%=      5-min Rain = 0
KAD1 031846Z 17006KT 33/12 A3015 RMK A01 T03270122  RH  029%=      5-min Rain = 0
KAD1 031847Z 13013KT 33/12 A3015 RMK A01 T03260122  RH  029%=      5-min Rain = 0
KAD1 031848Z 13011KT 33/12 A3015 RMK A01 T03250123  RH  029%=      5-min Rain = 0
KAD1 031849Z 14008KT 33/12 A3015 RMK A01 T03250122  RH  029%=      5-min Rain = 0
KAD1 031850Z 14008KT 32/12 A3015 RMK A01 T03240121  RH  029%=      5-min Rain = 0
KAD1 031851Z 17007KT 32/12 A3015 RMK A01 T03240121  RH  029%=      5-min Rain = 0
KAD1 031852Z 18008KT 33/12 A3015 RMK A01 T03250118  RH  028%=      5-min Rain = 0
KAD1 031853Z 19006KT 33/12 A3015 RMK A01 T03250119  RH  028%=      5-min Rain = 0
KAD1 031854Z 17010KT 33/12 A3015 RMK A01 T03250118  RH  028%=      5-min Rain = 0
KAD1 031855Z 17006KT 32/12 A3015 RMK A01 T03230119  RH  029%=      5-min Rain = 0
KAD1 031856Z 16006KT 32/13 A3015 RMK A01 T03230125  RH  030%=      5-min Rain = 0
KAD1 031857Z 13010KT 33/13 A3015 RMK A01 T03270127  RH  030%=      5-min Rain = 0
KAD1 031858Z 11012G17KT 33/13 A3015 RMK A01 T03280130  RH  030%=      5-min Rain = 0
KAD1 031859Z 14013KT 33/13 A3015 RMK A01 T03300128  RH  030%=      5-min Rain = 0
KAD1 031900Z 13013KT 33/13 A3015 RMK A01 T03290126  RH  029%=      5-min Rain = 0
KAD1 031901Z 13012KT 33/13 A3015 RMK A01 T03270126  RH  029%=      5-min Rain = 0
KAD1 031902Z 13017KT 33/13 A3015 RMK A01 T03260125  RH  029%=      5-min Rain = 0
KAD1 031903Z 13010G17KT 33/12 A3015 RMK A01 T03270124  RH  029%=      5-min Rain = 0
KAD1 031904Z 12008KT 32/12 A3015 RMK A01 T03240123  RH  029%=      5-min Rain = 0
KAD1 031905Z 12008KT 32/12 A3015 RMK A01 T03220123  RH  030%=      5-min Rain = 0
KAD1 031906Z 12009KT 32/12 A3015 RMK A01 T03230124  RH  030%=      5-min Rain = 0
KAD1 031907Z 13009KT 32/12 A3015 RMK A01 T03240123  RH  029%=      5-min Rain = 0
KAD1 031908Z 14011KT 32/12 A3015 RMK A01 T03230122  RH  029%=      5-min Rain = 0
KAD1 031909Z 12012KT 32/13 A3014 RMK A01 T03240125  RH  030%=      5-min Rain = 0
KAD1 031910Z 13012KT 33/13 A3014 RMK A01 T03290130  RH  030%=      5-min Rain = 0
KAD1 031911Z 14013KT 33/13 A3014 RMK A01 T03330126  RH  029%=      5-min Rain = 0
KAD1 031912Z 14015KT 34/13 A3014 RMK A01 T03370126  RH  028%=      5-min Rain = 0
KAD1 031913Z 14012KT 33/12 A3014 RMK A01 T03340122  RH  028%=      5-min Rain = 0
KAD1 031914Z 16011KT 33/12 A3014 RMK A01 T03310123  RH  028%=      5-min Rain = 0
KAD1 031915Z 18008KT 33/12 A3014 RMK A01 T03310124  RH  028%=      5-min Rain = 0
KAD1 031916Z 19008KT 33/13 A3014 RMK A01 T03320125  RH  028%=      5-min Rain = 0
KAD1 031917Z 18006KT 33/12 A3014 RMK A01 T03300123  RH  028%=      5-min Rain = 0
KAD1 031918Z 14008KT 33/12 A3014 RMK A01 T03280123  RH  029%=      5-min Rain = 0
KAD1 031919Z 14013G20KT 33/13 A3014 RMK A01 T03270125  RH  029%=      5-min Rain = 0
KAD1 031920Z 14018KT 33/13 A3014 RMK A01 T03310127  RH  029%=      5-min Rain = 0
KAD1 031921Z 13015KT 33/13 A3014 RMK A01 T03310125  RH  029%=      5-min Rain = 0
KAD1 031922Z 13013KT 33/13 A3014 RMK A01 T03320125  RH  028%=      5-min Rain = 0
KAD1 031923Z 12009KT 33/13 A3014 RMK A01 T03330125  RH  028%=      5-min Rain = 0
KAD1 031924Z 14009KT 33/13 A3014 RMK A01 T03320125  RH  028%=      5-min Rain = 0
KAD1 031925Z 14007KT 33/12 A3014 RMK A01 T03300123  RH  028%=      5-min Rain = 0
KAD1 031926Z 17002KT 33/12 A3014 RMK A01 T03260121  RH  029%=      5-min Rain = 0
KAD1 031927Z 13001KT 32/12 A3014 RMK A01 T03240121  RH  029%=      5-min Rain = 0
KAD1 031928Z 14005G12KT 33/12 A3014 RMK A01 T03260124  RH  029%=      5-min Rain = 0
KAD1 031929Z 13011KT 33/12 A3014 RMK A01 T03310122  RH  028%=      5-min Rain = 0
KAD1 031930Z 13012KT 34/12 A3014 RMK A01 T03350120  RH  027%=      5-min Rain = 0
KAD1 031931Z 13010G15KT 33/12 A3014 RMK A01 T03340122  RH  028%=      5-min Rain = 0
KAD1 031932Z 14012G19KT 33/12 A3014 RMK A01 T03320122  RH  028%=      5-min Rain = 0
KAD1 031933Z 17012G17KT 33/12 A3014 RMK A01 T03310122  RH  028%=      5-min Rain = 0
KAD1 031934Z 17012KT 33/12 A3014 RMK A01 T03330122  RH  028%=      5-min Rain = 0
KAD1 031935Z 17011KT 34/12 A3014 RMK A01 T03350120  RH  027%=      5-min Rain = 0
KAD1 031936Z 17008KT 33/12 A3014 RMK A01 T03330119  RH  027%=      5-min Rain = 0
KAD1 031937Z 18008KT 33/12 A3013 RMK A01 T03320119  RH  027%=      5-min Rain = 0
KAD1 031938Z 13007KT 33/12 A3013 RMK A01 T03310120  RH  028%=      5-min Rain = 0
KAD1 031939Z 10007KT 33/13 A3013 RMK A01 T03320126  RH  029%=      5-min Rain = 0
KAD1 031940Z 12007KT 33/13 A3013 RMK A01 T03330126  RH  028%=      5-min Rain = 0
KAD1 031941Z 12010KT 34/13 A3013 RMK A01 T03370127  RH  028%=      5-min Rain = 0
KAD1 031942Z 11007KT 34/12 A3013 RMK A01 T03360124  RH  028%=      5-min Rain = 0
KAD1 031943Z 12011KT 34/12 A3013 RMK A01 T03350124  RH  028%=      5-min Rain = 0
KAD1 031944Z 12010KT 33/12 A3013 RMK A01 T03310123  RH  028%=      5-min Rain = 0
KAD1 031945Z 13013G18KT 33/12 A3013 RMK A01 T03280122  RH  029%=      5-min Rain = 0
KAD1 031946Z 14013G19KT 33/12 A3013 RMK A01 T03320123  RH  028%=      5-min Rain = 0
KAD1 031947Z 14009KT 34/12 A3013 RMK A01 T03380124  RH  027%=      5-min Rain = 0
KAD1 031948Z 13009KT 34/12 A3013 RMK A01 T03390119  RH  026%=      5-min Rain = 0
KAD1 031949Z 12011KT 34/12 A3013 RMK A01 T03390121  RH  027%=      5-min Rain = 0
KAD1 031950Z 10011KT 34/12 A3013 RMK A01 T03390118  RH  026%=      5-min Rain = 0
KAD1 031951Z 09008KT 34/12 A3013 RMK A01 T03390120  RH  026%=      5-min Rain = 0
KAD1 031952Z 10007KT 34/12 A3013 RMK A01 T03400118  RH  026%=      5-min Rain = 0
KAD1 031953Z 14008KT 34/12 A3013 RMK A01 T03380122  RH  027%=      5-min Rain = 0
KAD1 031954Z 11012G24KT 34/12 A3013 RMK A01 T03400124  RH  027%=      5-min Rain = 0
KAD1 031955Z 10011KT 34/13 A3013 RMK A01 T03410125  RH  027%=      5-min Rain = 0
KAD1 031956Z 10012KT 34/12 A3013 RMK A01 T03370123  RH  027%=      5-min Rain = 0
KAD1 031957Z 09010KT 33/12 A3013 RMK A01 T03270122  RH  029%=      5-min Rain = 0
KAD1 031958Z 10008KT 32/12 A3013 RMK A01 T03220123  RH  030%=      5-min Rain = 0
KAD1 031959Z 11009KT 32/12 A3013 RMK A01 T03220123  RH  030%=      5-min Rain = 0
KAD1 032000Z 11010KT 32/12 A3013 RMK A01 T03240122  RH  029%=      5-min Rain = 0
KAD1 032001Z 13010G15KT 33/12 A3013 RMK A01 T03260120  RH  028%=      5-min Rain = 0
KAD1 032002Z 15014KT 33/12 A3013 RMK A01 T03300116  RH  027%=      5-min Rain = 0
KAD1 032003Z 15013G18KT 33/11 A3013 RMK A01 T03340113  RH  026%=      5-min Rain = 0
KAD1 032004Z 15016KT 34/12 A3012 RMK A01 T03350115  RH  026%=      5-min Rain = 0
KAD1 032005Z 15012KT 34/12 A3013 RMK A01 T03390117  RH  026%=      5-min Rain = 0
KAD1 032006Z 15009KT 34/12 A3013 RMK A01 T03380115  RH  026%=      5-min Rain = 0
KAD1 032007Z 14007KT 34/12 A3012 RMK A01 T03380116  RH  026%=      5-min Rain = 0
KAD1 032008Z 14008KT 34/11 A3013 RMK A01 T03380114  RH  026%=      5-min Rain = 0
KAD1 032009Z 12004G9KT 34/11 A3013 RMK A01 T03360112  RH  026%=      5-min Rain = 0
KAD1 032010Z 08004KT 33/12 A3012 RMK A01 T03340115  RH  026%=      5-min Rain = 0
KAD1 032011Z 14008KT 33/12 A3012 RMK A01 T03330118  RH  027%=      5-min Rain = 0
KAD1 032012Z 15004KT 33/12 A3012 RMK A01 T03330122  RH  028%=      5-min Rain = 0
KAD1 032013Z 15008KT 33/12 A3012 RMK A01 T03320123  RH  028%=      5-min Rain = 0
KAD1 032014Z 12012KT 34/12 A3012 RMK A01 T03360124  RH  028%=      5-min Rain = 0
KAD1 032015Z 12010KT 34/12 A3012 RMK A01 T03380124  RH  027%=      5-min Rain = 0
KAD1 032016Z 14009KT 34/12 A3012 RMK A01 T03380122  RH  027%=      5-min Rain = 0
KAD1 032017Z 16010KT 34/12 A3012 RMK A01 T03380121  RH  027%=      5-min Rain = 0
KAD1 032018Z 16010KT 34/12 A3012 RMK A01 T03380120  RH  027%=      5-min Rain = 0
KAD1 032019Z 16013KT 34/12 A3012 RMK A01 T03370121  RH  027%=      5-min Rain = 0
KAD1 032020Z 16014KT 34/12 A3012 RMK A01 T03370120  RH  027%=      5-min Rain = 0
KAD1 032021Z 16010KT 34/12 A3012 RMK A01 T03370121  RH  027%=      5-min Rain = 0
KAD1 032022Z 16010KT 34/12 A3012 RMK A01 T03410121  RH  026%=      5-min Rain = 0
KAD1 032023Z 15011KT 34/12 A3012 RMK A01 T03420120  RH  026%=      5-min Rain = 0
KAD1 032024Z 15009G17KT 34/12 A3012 RMK A01 T03430119  RH  026%=      5-min Rain = 0
KAD1 032025Z 13015KT 34/12 A3012 RMK A01 T03390118  RH  026%=      5-min Rain = 0
KAD1 032026Z 13011KT 34/11 A3012 RMK A01 T03370114  RH  026%=      5-min Rain = 0
KAD1 032027Z 12009G17KT 33/12 A3012 RMK A01 T03340116  RH  027%=      5-min Rain = 0
KAD1 032028Z 15016G24KT 33/12 A3012 RMK A01 T03340122  RH  028%=      5-min Rain = 0
KAD1 032029Z 15015KT 34/13 A3012 RMK A01 T03420125  RH  027%=      5-min Rain = 0
KAD1 032030Z 16013G19KT 34/12 A3012 RMK A01 T03430121  RH  026%=      5-min Rain = 0
KAD1 032031Z 16015KT 34/12 A3012 RMK A01 T03370118  RH  026%=      5-min Rain = 0
KAD1 032032Z 15010KT 33/12 A3012 RMK A01 T03340117  RH  027%=      5-min Rain = 0
KAD1 032033Z 17006KT 33/11 A3012 RMK A01 T03320114  RH  026%=      5-min Rain = 0
KAD1 032034Z 20004KT 33/11 A3011 RMK A01 T03310112  RH  026%=      5-min Rain = 0
KAD1 032035Z 18004KT 33/11 A3011 RMK A01 T03300111  RH  026%=      5-min Rain = 0
KAD1 032036Z 15011G16KT 33/12 A3011 RMK A01 T03320116  RH  027%=      5-min Rain = 0
KAD1 032037Z 14014G21KT 34/12 A3011 RMK A01 T03370120  RH  027%=      5-min Rain = 0
KAD1 032038Z 14012G17KT 34/12 A3012 RMK A01 T03390116  RH  026%=      5-min Rain = 0
KAD1 032039Z 14013KT 34/12 A3012 RMK A01 T03360115  RH  026%=      5-min Rain = 0
KAD1 032040Z 14010KT 33/12 A3012 RMK A01 T03340115  RH  026%=      5-min Rain = 0
KAD1 032041Z 15009KT 33/12 A3012 RMK A01 T03330116  RH  027%=      5-min Rain = 0
KAD1 032042Z 14008KT 33/11 A3012 RMK A01 T03310114  RH  027%=      5-min Rain = 0
KAD1 032043Z 16006KT 33/11 A3012 RMK A01 T03300114  RH  027%=      5-min Rain = 0
KAD1 032044Z 18007KT 33/11 A3012 RMK A01 T03310112  RH  026%=      5-min Rain = 0
KAD1 032045Z 19011KT 33/11 A3011 RMK A01 T03320112  RH  026%=      5-min Rain = 0
KAD1 032046Z 19008KT 33/11 A3011 RMK A01 T03340111  RH  026%=      5-min Rain = 0
KAD1 032047Z 18004KT 34/11 A3011 RMK A01 T03360112  RH  025%=      5-min Rain = 0
KAD1 032048Z 16006KT 34/11 A3011 RMK A01 T03360112  RH  025%=      5-min Rain = 0
KAD1 032049Z 15009KT 34/11 A3011 RMK A01 T03370110  RH  025%=      5-min Rain = 0
KAD1 032050Z 16010KT 34/11 A3011 RMK A01 T03360110  RH  025%=      5-min Rain = 0
KAD1 032051Z 17010KT 34/11 A3011 RMK A01 T03380113  RH  025%=      5-min Rain = 0
KAD1 032052Z 17011KT 34/11 A3011 RMK A01 T03410114  RH  025%=      5-min Rain = 0
KAD1 032053Z 15011KT 34/12 A3011 RMK A01 T03410115  RH  025%=      5-min Rain = 0
KAD1 032054Z 16008KT 34/11 A3011 RMK A01 T03380113  RH  026%=      5-min Rain = 0
KAD1 032055Z 15007G12KT 34/12 A3011 RMK A01 T03360115  RH  026%=      5-min Rain = 0
KAD1 032056Z 15008KT 34/11 A3011 RMK A01 T03380112  RH  025%=      5-min Rain = 0
KAD1 032057Z 11011G16KT 34/11 A3011 RMK A01 T03380112  RH  025%=      5-min Rain = 0
KAD1 032058Z 14014KT 34/11 A3011 RMK A01 T03400111  RH  025%=      5-min Rain = 0
KAD1 032059Z 16012KT 34/11 A3011 RMK A01 T03440111  RH  024%=      5-min Rain = 0
KAD1 032100Z 14010KT 34/11 A3011 RMK A01 T03430111  RH  024%=      5-min Rain = 0
KAD1 032101Z 14009G14KT 34/11 A3011 RMK A01 T03420111  RH  025%=      5-min Rain = 0
KAD1 032102Z 15010KT 34/11 A3011 RMK A01 T03380111  RH  025%=      5-min Rain = 0
KAD1 032103Z 14011KT 34/11 A3011 RMK A01 T03350112  RH  026%=      5-min Rain = 0
KAD1 032104Z 13016G22KT 34/12 A3011 RMK A01 T03370116  RH  026%=      5-min Rain = 0
KAD1 032105Z 14015KT 34/12 A3011 RMK A01 T03410119  RH  026%=      5-min Rain = 0
KAD1 032106Z 14010KT 34/12 A3011 RMK A01 T03440122  RH  026%=      5-min Rain = 0
KAD1 032107Z 14011KT 35/12 A3011 RMK A01 T03450121  RH  026%=      5-min Rain = 0
KAD1 032108Z 13014KT 34/12 A3011 RMK A01 T03440119  RH  026%=      5-min Rain = 0
KAD1 032109Z 11012KT 34/12 A3011 RMK A01 T03410118  RH  026%=      5-min Rain = 0
KAD1 032110Z 12013KT 34/12 A3011 RMK A01 T03370115  RH  026%=      5-min Rain = 0
KAD1 032111Z 13012KT 33/11 A3011 RMK A01 T03340114  RH  026%=      5-min Rain = 0
KAD1 032112Z 14017G22KT 33/12 A3011 RMK A01 T03340117  RH  027%=      5-min Rain = 0
KAD1 032113Z 13016KT 34/12 A3011 RMK A01 T03350118  RH  027%=      5-min Rain = 0
KAD1 032114Z 14013KT 34/12 A3011 RMK A01 T03350119  RH  027%=      5-min Rain = 0
KAD1 032115Z 14012G18KT 33/12 A3011 RMK A01 T03330118  RH  027%=      5-min Rain = 0
KAD1 032116Z 14013KT 33/12 A3011 RMK A01 T03330117  RH  027%=      5-min Rain = 0
KAD1 032117Z 14015KT 34/12 A3011 RMK A01 T03350117  RH  027%=      5-min Rain = 0
KAD1 032118Z 14014KT 34/12 A3011 RMK A01 T03350115  RH  026%=      5-min Rain = 0
KAD1 032119Z 13011KT 34/11 A3011 RMK A01 T03350114  RH  026%=      5-min Rain = 0
KAD1 032120Z 14011KT 34/11 A3011 RMK A01 T03350113  RH  026%=      5-min Rain = 0
KAD1 032121Z 15012KT 34/12 A3011 RMK A01 T03350115  RH  026%=      5-min Rain = 0
KAD1 032122Z 16011G16KT 34/12 A3011 RMK A01 T03350115  RH  026%=      5-min Rain = 0
KAD1 032123Z 16012KT 34/12 A3011 RMK A01 T03370118  RH  026%=      5-min Rain = 0
KAD1 032124Z 16008KT 34/12 A3011 RMK A01 T03370117  RH  026%=      5-min Rain = 0
KAD1 032125Z 16011KT 34/12 A3011 RMK A01 T03370119  RH  026%=      5-min Rain = 0
KAD1 032126Z 17013KT 34/12 A301 RMK A01 T03380121  RH  027%=      5-min Rain = 0
KAD1 032127Z 15011KT 34/12 A301 RMK A01 T03380120  RH  027%=      5-min Rain = 0
KAD1 032128Z 16011G16KT 33/12 A301 RMK A01 T03340119  RH  027%=      5-min Rain = 0
KAD1 032129Z 16012KT 33/12 A301 RMK A01 T03340120  RH  027%=      5-min Rain = 0
KAD1 032130Z 16013KT 34/12 A301 RMK A01 T03350121  RH  027%=      5-min Rain = 0
KAD1 032131Z 16009KT 34/12 A301 RMK A01 T03360120  RH  027%=      5-min Rain = 0
KAD1 032132Z 19010KT 34/12 A301 RMK A01 T03370122  RH  027%=      5-min Rain = 0
KAD1 032133Z 20008KT 34/12 A301 RMK A01 T03390122  RH  027%=      5-min Rain = 0
KAD1 032134Z 14009KT 34/12 A301 RMK A01 T03390122  RH  027%=      5-min Rain = 0
KAD1 032135Z 15010G16KT 34/12 A301 RMK A01 T03420119  RH  026%=      5-min Rain = 0
KAD1 032136Z 15017KT 34/12 A301 RMK A01 T03430120  RH  026%=      5-min Rain = 0
KAD1 032137Z 14016KT 34/12 A301 RMK A01 T03430119  RH  026%=      5-min Rain = 0
KAD1 032138Z 13015KT 34/12 A301 RMK A01 T03400118  RH  026%=      5-min Rain = 0
KAD1 032139Z 14015KT 34/12 A301 RMK A01 T03380117  RH  026%=      5-min Rain = 0
KAD1 032140Z 14015KT 34/12 A301 RMK A01 T03370117  RH  026%=      5-min Rain = 0
KAD1 032141Z 15015KT 34/12 A301 RMK A01 T03370118  RH  026%=      5-min Rain = 0
KAD1 032142Z 17012KT 34/12 A301 RMK A01 T03350117  RH  026%=      5-min Rain = 0
KAD1 032143Z 16013KT 34/12 A301 RMK A01 T03350117  RH  027%=      5-min Rain = 0
KAD1 032144Z 16014KT 33/12 A301 RMK A01 T03340115  RH  026%=      5-min Rain = 0
KAD1 032145Z 16015KT 34/12 A301 RMK A01 T03350115  RH  026%=      5-min Rain = 0
KAD1 032146Z 14011KT 34/12 A301 RMK A01 T03360115  RH  026%=      5-min Rain = 0
KAD1 032147Z 13009KT 33/12 A301 RMK A01 T03340115  RH  026%=      5-min Rain = 0
KAD1 032148Z 15012KT 33/11 A301 RMK A01 T03340114  RH  026%=      5-min Rain = 0
KAD1 032149Z 13012KT 34/11 A301 RMK A01 T03360113  RH  026%=      5-min Rain = 0
KAD1 032150Z 14012KT 34/11 A3009 RMK A01 T03370113  RH  026%=      5-min Rain = 0
KAD1 032151Z 14011KT 34/11 A3009 RMK A01 T03400112  RH  025%=      5-min Rain = 0
KAD1 032152Z 15013KT 34/12 A3009 RMK A01 T03410116  RH  025%=      5-min Rain = 0
KAD1 032153Z 17016KT 35/13 A3009 RMK A01 T03450125  RH  027%=      5-min Rain = 0
KAD1 032154Z 17017KT 35/13 A3009 RMK A01 T03460125  RH  026%=      5-min Rain = 0
KAD1 032155Z 16015G21KT 34/13 A3009 RMK A01 T03410125  RH  027%=      5-min Rain = 0
KAD1 032156Z 17015KT 34/13 A3009 RMK A01 T03420127  RH  027%=      5-min Rain = 0
KAD1 032157Z 15016KT 35/12 A301 RMK A01 T03470123  RH  026%=      5-min Rain = 0
KAD1 032158Z 15014KT 35/12 A301 RMK A01 T03500119  RH  025%=      5-min Rain = 0
KAD1 032159Z 17014KT 35/12 A301 RMK A01 T03510120  RH  025%=      5-min Rain = 0
KAD1 032200Z 17012KT 35/12 A301 RMK A01 T03480121  RH  025%=      5-min Rain = 0
KAD1 032201Z 15013KT 35/12 A301 RMK A01 T03450122  RH  026%=      5-min Rain = 0
KAD1 032202Z 16011KT 34/12 A301 RMK A01 T03410120  RH  026%=      5-min Rain = 0
KAD1 032203Z 17013G18KT 34/12 A301 RMK A01 T03390121  RH  027%=      5-min Rain = 0
KAD1 032204Z 18017KT 34/12 A3009 RMK A01 T03390120  RH  027%=      5-min Rain = 0
KAD1 032205Z 15014KT 34/12 A301 RMK A01 T03400121  RH  026%=      5-min Rain = 0
KAD1 032206Z 15015KT 34/12 A301 RMK A01 T03440118  RH  025%=      5-min Rain = 0
KAD1 032207Z 17013KT 35/12 A301 RMK A01 T03460118  RH  025%=      5-min Rain = 0
KAD1 032208Z 16014G21KT 34/12 A3009 RMK A01 T03420119  RH  026%=      5-min Rain = 0
KAD1 032209Z 18020KT 34/12 A3009 RMK A01 T03410120  RH  026%=      5-min Rain = 0
KAD1 032210Z 18019KT 34/12 A301 RMK A01 T03420120  RH  026%=      5-min Rain = 0
KAD1 032211Z 18018KT 34/12 A301 RMK A01 T03410119  RH  026%=      5-min Rain = 0
KAD1 032212Z 18013KT 34/12 A301 RMK A01 T03390118  RH  026%=      5-min Rain = 0
KAD1 032213Z 18014KT 34/12 A301 RMK A01 T03370118  RH  026%=      5-min Rain = 0
KAD1 032214Z 18016KT 34/12 A3009 RMK A01 T03370119  RH  027%=      5-min Rain = 0
KAD1 032215Z 17020KT 34/12 A301 RMK A01 T03370120  RH  027%=      5-min Rain = 0
KAD1 032216Z 17020KT 34/12 A3009 RMK A01 T03370119  RH  027%=      5-min Rain = 0
KAD1 032217Z 16016KT 34/12 A3009 RMK A01 T03350118  RH  027%=      5-min Rain = 0
KAD1 032218Z 17014KT 33/12 A3009 RMK A01 T03320117  RH  027%=      5-min Rain = 0
KAD1 032219Z 18017KT 33/12 A3009 RMK A01 T03300117  RH  027%=      5-min Rain = 0
KAD1 032220Z 17018KT 33/12 A3009 RMK A01 T03300118  RH  027%=      5-min Rain = 0
KAD1 032221Z 17017KT 33/12 A3009 RMK A01 T03300118  RH  028%=      5-min Rain = 0
KAD1 032222Z 18020KT 33/12 A3009 RMK A01 T03300118  RH  027%=      5-min Rain = 0
KAD1 032223Z 18018KT 33/12 A3009 RMK A01 T03290117  RH  027%=      5-min Rain = 0
KAD1 032224Z 17014KT 33/12 A3009 RMK A01 T03280118  RH  028%=      5-min Rain = 0
KAD1 032225Z 17013KT 33/12 A3009 RMK A01 T03280118  RH  028%=      5-min Rain = 0
KAD1 032226Z 16016KT 33/12 A3009 RMK A01 T03310116  RH  027%=      5-min Rain = 0
KAD1 032227Z 18017KT 33/12 A3009 RMK A01 T03320117  RH  027%=      5-min Rain = 0
KAD1 032228Z 18016KT 33/12 A3009 RMK A01 T03310117  RH  027%=      5-min Rain = 0
KAD1 032229Z 18015KT 33/12 A3009 RMK A01 T03310117  RH  027%=      5-min Rain = 0
KAD1 032230Z 17015KT 33/12 A3009 RMK A01 T03310117  RH  027%=      5-min Rain = 0
KAD1 032231Z 17018KT 33/12 A3009 RMK A01 T03320118  RH  027%=      5-min Rain = 0
KAD1 032232Z 16017KT 33/12 A3009 RMK A01 T03310117  RH  027%=      5-min Rain = 0
KAD1 032233Z 16014KT 33/12 A3009 RMK A01 T03310118  RH  027%=      5-min Rain = 0
KAD1 032234Z 16013KT 33/12 A3009 RMK A01 T03310117  RH  027%=      5-min Rain = 0
KAD1 032235Z 16015KT 33/12 A3009 RMK A01 T03320119  RH  027%=      5-min Rain = 0
KAD1 032236Z 17016KT 34/12 A3009 RMK A01 T03370119  RH  027%=      5-min Rain = 0
KAD1 032237Z 17016KT 34/12 A3009 RMK A01 T03370118  RH  026%=      5-min Rain = 0
KAD1 032238Z 16016KT 34/12 A3009 RMK A01 T03380118  RH  026%=      5-min Rain = 0
KAD1 032239Z 16017KT 34/12 A3009 RMK A01 T03380116  RH  026%=      5-min Rain = 0
KAD1 032240Z 16016KT 34/11 A3009 RMK A01 T03350114  RH  026%=      5-min Rain = 0
KAD1 032241Z 17013KT 33/11 A3009 RMK A01 T03340112  RH  026%=      5-min Rain = 0
KAD1 032242Z 18016KT 33/11 A3009 RMK A01 T03320112  RH  026%=      5-min Rain = 0
KAD1 032243Z 18015KT 33/11 A3009 RMK A01 T03310112  RH  026%=      5-min Rain = 0
KAD1 032244Z 17015KT 33/11 A3009 RMK A01 T03300111  RH  026%=      5-min Rain = 0
KAD1 032245Z 16012KT 33/11 A3009 RMK A01 T03320107  RH  025%=      5-min Rain = 0
KAD1 032246Z 16013KT 33/11 A3009 RMK A01 T03340106  RH  025%=      5-min Rain = 0
KAD1 032247Z 14014KT 33/11 A3009 RMK A01 T03330108  RH  025%=      5-min Rain = 0
KAD1 032248Z 16014KT 33/11 A3009 RMK A01 T03310112  RH  026%=      5-min Rain = 0
KAD1 032249Z 16014KT 33/11 A3009 RMK A01 T03270114  RH  027%=      5-min Rain = 0
KAD1 032250Z 16015KT 33/11 A3009 RMK A01 T03270114  RH  027%=      5-min Rain = 0
KAD1 032251Z 18013KT 33/11 A3009 RMK A01 T03270113  RH  027%=      5-min Rain = 0
KAD1 032252Z 18014KT 33/11 A3009 RMK A01 T03270114  RH  027%=      5-min Rain = 0
KAD1 032253Z 18013KT 33/12 A3009 RMK A01 T03260117  RH  028%=      5-min Rain = 0
KAD1 032254Z 19014KT 33/12 A3009 RMK A01 T03260118  RH  028%=      5-min Rain = 0
KAD1 032255Z 19013KT 33/12 A3009 RMK A01 T03260118  RH  028%=      5-min Rain = 0
KAD1 032256Z 18013KT 33/12 A3009 RMK A01 T03250118  RH  028%=      5-min Rain = 0
KAD1 032257Z 18017KT 33/12 A3009 RMK A01 T03270117  RH  028%=      5-min Rain = 0
KAD1 032258Z 18018KT 33/12 A3009 RMK A01 T03270117  RH  028%=      5-min Rain = 0
KAD1 032259Z 18018KT 33/12 A3009 RMK A01 T03270115  RH  027%=      5-min Rain = 0
KAD1 032300Z 18015KT 33/12 A3009 RMK A01 T03270115  RH  027%=      5-min Rain = 0
KAD1 032301Z 18014KT 33/12 A3008 RMK A01 T03260115  RH  027%=      5-min Rain = 0
KAD1 032302Z 17015KT 33/11 A3008 RMK A01 T03280113  RH  027%=      5-min Rain = 0
KAD1 032303Z 17014KT 33/11 A3008 RMK A01 T03280113  RH  027%=      5-min Rain = 0
KAD1 032304Z 18013KT 33/12 A3008 RMK A01 T03280115  RH  027%=      5-min Rain = 0
KAD1 032305Z 18014KT 33/12 A3008 RMK A01 T03290116  RH  027%=      5-min Rain = 0
KAD1 032306Z 17017KT 33/12 A3008 RMK A01 T03320119  RH  027%=      5-min Rain = 0
KAD1 032307Z 17015KT 33/12 A3008 RMK A01 T03320117  RH  027%=      5-min Rain = 0
KAD1 032308Z 17013KT 33/12 A3009 RMK A01 T03330116  RH  027%=      5-min Rain = 0
KAD1 032309Z 16011KT 33/12 A3009 RMK A01 T03340117  RH  027%=      5-min Rain = 0
KAD1 032310Z 14015KT 34/12 A3009 RMK A01 T03370115  RH  026%=      5-min Rain = 0
KAD1 032311Z 14014KT 34/11 A3008 RMK A01 T03370112  RH  025%=      5-min Rain = 0
KAD1 032312Z 15014KT 34/11 A3009 RMK A01 T03350111  RH  025%=      5-min Rain = 0
KAD1 032313Z 16016KT 33/11 A3008 RMK A01 T03340111  RH  026%=      5-min Rain = 0
KAD1 032314Z 17017KT 33/11 A3009 RMK A01 T03330111  RH  026%=      5-min Rain = 0
KAD1 032315Z 16017KT 33/11 A3008 RMK A01 T03330110  RH  026%=      5-min Rain = 0
KAD1 032316Z 17013G19KT 33/11 A3009 RMK A01 T03320110  RH  026%=      5-min Rain = 0
KAD1 032317Z 18015KT 33/11 A3009 RMK A01 T03320110  RH  026%=      5-min Rain = 0
KAD1 032318Z 18016KT 33/11 A3008 RMK A01 T03330112  RH  026%=      5-min Rain = 0
KAD1 032319Z 17016KT 33/11 A3008 RMK A01 T03310111  RH  026%=      5-min Rain = 0
KAD1 032320Z 17015KT 33/11 A3008 RMK A01 T03290109  RH  026%=      5-min Rain = 0
KAD1 032321Z 17013KT 33/11 A3008 RMK A01 T03290110  RH  026%=      5-min Rain = 0
KAD1 032322Z 17013KT 33/11 A3008 RMK A01 T03300110  RH  026%=      5-min Rain = 0
KAD1 032323Z 16012KT 33/11 A3008 RMK A01 T03310111  RH  026%=      5-min Rain = 0
KAD1 032324Z 17010G15KT 33/11 A3008 RMK A01 T03290113  RH  027%=      5-min Rain = 0
KAD1 032325Z 17017KT 33/11 A3008 RMK A01 T03290114  RH  027%=      5-min Rain = 0
KAD1 032326Z 17014KT 33/12 A3009 RMK A01 T03290117  RH  027%=      5-min Rain = 0
KAD1 032327Z 17010KT 33/12 A3009 RMK A01 T03270116  RH  028%=      5-min Rain = 0
KAD1 032328Z 17010KT 33/12 A3009 RMK A01 T03260115  RH  028%=      5-min Rain = 0
KAD1 032329Z 16015G23KT 33/12 A3009 RMK A01 T03250116  RH  028%=      5-min Rain = 0
KAD1 032330Z 14015KT 33/12 A3009 RMK A01 T03270116  RH  028%=      5-min Rain = 0
KAD1 032331Z 14014KT 33/12 A3009 RMK A01 T03280115  RH  027%=      5-min Rain = 0
KAD1 032332Z 14016KT 33/12 A3009 RMK A01 T03280115  RH  027%=      5-min Rain = 0
KAD1 032333Z 15014KT 33/11 A3009 RMK A01 T03280114  RH  027%=      5-min Rain = 0
KAD1 032334Z 15015KT 33/11 A3009 RMK A01 T03290114  RH  027%=      5-min Rain = 0
KAD1 032335Z 15013KT 33/11 A3009 RMK A01 T03280113  RH  027%=      5-min Rain = 0
KAD1 032336Z 15010KT 33/11 A3009 RMK A01 T03270114  RH  027%=      5-min Rain = 0
KAD1 032337Z 15012KT 33/11 A3009 RMK A01 T03270114  RH  027%=      5-min Rain = 0
KAD1 032338Z 17015KT 33/11 A3009 RMK A01 T03270114  RH  027%=      5-min Rain = 0
KAD1 032339Z 16014KT 33/11 A301 RMK A01 T03270114  RH  027%=      5-min Rain = 0
KAD1 032340Z 17014KT 33/11 A301 RMK A01 T03250114  RH  027%=      5-min Rain = 0
KAD1 032341Z 18014KT 33/12 A301 RMK A01 T03250115  RH  028%=      5-min Rain = 0
KAD1 032342Z 17013KT 33/12 A301 RMK A01 T03250116  RH  028%=      5-min Rain = 0
KAD1 032343Z 18011KT 33/12 A301 RMK A01 T03250117  RH  028%=      5-min Rain = 0
KAD1 032344Z 18013KT 33/12 A301 RMK A01 T03250117  RH  028%=      5-min Rain = 0
KAD1 032345Z 17012KT 33/12 A301 RMK A01 T03250117  RH  028%=      5-min Rain = 0
KAD1 032346Z 18010KT 32/12 A301 RMK A01 T03240117  RH  028%=      5-min Rain = 0
KAD1 032347Z 18009KT 32/12 A301 RMK A01 T03240117  RH  028%=      5-min Rain = 0
KAD1 032348Z 18013KT 33/11 A301 RMK A01 T03250114  RH  028%=      5-min Rain = 0
KAD1 032349Z 18015KT 33/11 A301 RMK A01 T03250113  RH  027%=      5-min Rain = 0
KAD1 032350Z 18014KT 33/11 A301 RMK A01 T03250113  RH  027%=      5-min Rain = 0
KAD1 032351Z 19012KT 32/11 A301 RMK A01 T03240113  RH  027%=      5-min Rain = 0
KAD1 032352Z 19012KT 32/11 A301 RMK A01 T03240113  RH  027%=      5-min Rain = 0
KAD1 032353Z 19011KT 32/11 A301 RMK A01 T03230111  RH  027%=      5-min Rain = 0
KAD1 032354Z 18012KT 32/11 A301 RMK A01 T03230110  RH  027%=      5-min Rain = 0
KAD1 032355Z 17010KT 33/11 A301 RMK A01 T03250112  RH  027%=      5-min Rain = 0
KAD1 032356Z 16015KT 33/11 A301 RMK A01 T03260114  RH  027%=      5-min Rain = 0
KAD1 032357Z 16014KT 33/12 A301 RMK A01 T03260115  RH  027%=      5-min Rain = 0
KAD1 032358Z 17012KT 33/11 A301 RMK A01 T03250114  RH  028%=      5-min Rain = 0
KAD1 032359Z 17014KT 33/11 A301 RMK A01 T03250112  RH  027%=      5-min Rain = 0
KAD1 040000Z 18013KT 33/11 A301 RMK A01 T03250108  RH  027%=      5-min Rain = 0
KAD1 040001Z 18011KT 33/11 A3009 RMK A01 T03250108  RH  027%=      5-min Rain = 0
KAD1 040002Z 17010KT 33/11 A3009 RMK A01 T03250107  RH  026%=      5-min Rain = 0
KAD1 040003Z 17010KT 33/11 A3009 RMK A01 T03250108  RH  026%=      5-min Rain = 0
KAD1 040004Z 17011KT 33/11 A3009 RMK A01 T03250109  RH  027%=      5-min Rain = 0
KAD1 040005Z 18011KT 33/11 A3009 RMK A01 T03260109  RH  027%=      5-min Rain = 0
KAD1 040006Z 18010KT 33/11 A3009 RMK A01 T03250109  RH  027%=      5-min Rain = 0
KAD1 040007Z 18011KT 32/11 A3009 RMK A01 T03240109  RH  027%=      5-min Rain = 0
KAD1 040008Z 19010KT 32/11 A3009 RMK A01 T03240109  RH  027%=      5-min Rain = 0
KAD1 040009Z 19010KT 32/11 A3009 RMK A01 T03230108  RH  027%=      5-min Rain = 0
KAD1 040010Z 19009KT 32/11 A3009 RMK A01 T03230108  RH  027%=      5-min Rain = 0
KAD1 040011Z 17011KT 32/11 A301 RMK A01 T03230110  RH  027%=      5-min Rain = 0
KAD1 040012Z 15012KT 32/11 A3009 RMK A01 T03230110  RH  027%=      5-min Rain = 0
KAD1 040013Z 15013KT 32/11 A3009 RMK A01 T03230111  RH  027%=      5-min Rain = 0
KAD1 040014Z 14012KT 32/11 A3009 RMK A01 T03220111  RH  027%=      5-min Rain = 0
KAD1 040015Z 15012KT 32/11 A3009 RMK A01 T03220111  RH  027%=      5-min Rain = 0
KAD1 040016Z 16012KT 32/11 A3009 RMK A01 T03220110  RH  027%=      5-min Rain = 0
KAD1 040017Z 15011KT 32/11 A301 RMK A01 T03220110  RH  027%=      5-min Rain = 0
KAD1 040018Z 16013KT 32/11 A301 RMK A01 T03220110  RH  027%=      5-min Rain = 0
KAD1 040019Z 18012KT 32/11 A301 RMK A01 T03210109  RH  027%=      5-min Rain = 0
KAD1 040020Z 18013KT 32/11 A301 RMK A01 T03210109  RH  027%=      5-min Rain = 0
KAD1 040021Z 18014KT 32/11 A301 RMK A01 T03210109  RH  027%=      5-min Rain = 0
KAD1 040022Z 18013KT 32/11 A301 RMK A01 T03210110  RH  027%=      5-min Rain = 0
KAD1 040023Z 17011KT 32/11 A301 RMK A01 T03200110  RH  027%=      5-min Rain = 0
KAD1 040024Z 17012KT 32/11 A301 RMK A01 T03200109  RH  027%=      5-min Rain = 0
KAD1 040025Z 18013KT 32/11 A301 RMK A01 T03200107  RH  027%=      5-min Rain = 0
KAD1 040026Z 17012KT 32/11 A301 RMK A01 T03200107  RH  027%=      5-min Rain = 0
KAD1 040027Z 17014KT 32/11 A301 RMK A01 T03200108  RH  027%=      5-min Rain = 0
KAD1 040028Z 17011KT 32/11 A301 RMK A01 T03200109  RH  027%=      5-min Rain = 0
KAD1 040029Z 18011KT 32/11 A301 RMK A01 T03200109  RH  027%=      5-min Rain = 0
KAD1 040030Z 18011KT 32/11 A301 RMK A01 T03200109  RH  027%=      5-min Rain = 0
KAD1 040031Z 18010KT 32/11 A301 RMK A01 T03200110  RH  027%=      5-min Rain = 0
KAD1 040032Z 18010KT 32/11 A3011 RMK A01 T03200110  RH  027%=      5-min Rain = 0
KAD1 040033Z 17012KT 32/11 A3011 RMK A01 T03200109  RH  027%=      5-min Rain = 0
KAD1 040034Z 18011KT 32/11 A301 RMK A01 T03200107  RH  027%=      5-min Rain = 0
KAD1 040035Z 17010KT 32/11 A3011 RMK A01 T03190106  RH  027%=      5-min Rain = 0
KAD1 040036Z 17011KT 32/11 A3011 RMK A01 T03190106  RH  027%=      5-min Rain = 0
KAD1 040037Z 17011KT 32/11 A3011 RMK A01 T03190105  RH  027%=      5-min Rain = 0
KAD1 040038Z 17010KT 32/11 A3011 RMK A01 T03190105  RH  027%=      5-min Rain = 0
KAD1 040039Z 17010KT 32/11 A3011 RMK A01 T03200106  RH  027%=      5-min Rain = 0
KAD1 040040Z 17013KT 32/11 A3011 RMK A01 T03190106  RH  027%=      5-min Rain = 0
KAD1 040041Z 18011KT 32/11 A3011 RMK A01 T03190107  RH  027%=      5-min Rain = 0
KAD1 040042Z 18011KT 32/11 A3011 RMK A01 T03190107  RH  027%=      5-min Rain = 0
KAD1 040043Z 17010KT 32/11 A3011 RMK A01 T03190107  RH  027%=      5-min Rain = 0
KAD1 040044Z 17009KT 32/11 A3011 RMK A01 T03180108  RH  027%=      5-min Rain = 0
KAD1 040045Z 17010KT 32/11 A3011 RMK A01 T03190108  RH  027%=      5-min Rain = 0
KAD1 040046Z 17009KT 32/11 A3011 RMK A01 T03180108  RH  028%=      5-min Rain = 0
KAD1 040047Z 17008KT 32/11 A3011 RMK A01 T03180109  RH  028%=      5-min Rain = 0
KAD1 040048Z 17009KT 32/11 A3011 RMK A01 T03180109  RH  028%=      5-min Rain = 0
KAD1 040049Z 17009KT 32/11 A3011 RMK A01 T03180110  RH  028%=      5-min Rain = 0
KAD1 040050Z 17008KT 32/11 A3011 RMK A01 T03170109  RH  028%=      5-min Rain = 0
KAD1 040051Z 17008KT 32/11 A3011 RMK A01 T03170110  RH  028%=      5-min Rain = 0
KAD1 040052Z 16008KT 32/11 A3011 RMK A01 T03170110  RH  028%=      5-min Rain = 0
KAD1 040053Z 17009KT 32/11 A3011 RMK A01 T03170111  RH  028%=      5-min Rain = 0
KAD1 040054Z 17009KT 32/11 A3011 RMK A01 T03160110  RH  028%=      5-min Rain = 0
KAD1 040055Z 17009KT 32/11 A3011 RMK A01 T03170111  RH  028%=      5-min Rain = 0
KAD1 040056Z 16007KT 32/11 A3011 RMK A01 T03170111  RH  028%=      5-min Rain = 0
KAD1 040057Z 16008KT 32/11 A3011 RMK A01 T03160111  RH  028%=      5-min Rain = 0
KAD1 040058Z 16009KT 32/11 A3011 RMK A01 T03160110  RH  028%=      5-min Rain = 0
KAD1 040059Z 17009KT 32/11 A3011 RMK A01 T03160110  RH  028%=      5-min Rain = 0
KAD1 040100Z 17009KT 32/11 A3011 RMK A01 T03160109  RH  028%=      5-min Rain = 0
KAD1 040101Z 17009KT 32/11 A3011 RMK A01 T03160108  RH  028%=      5-min Rain = 0
KAD1 040102Z 18009KT 32/11 A3011 RMK A01 T03160108  RH  028%=      5-min Rain = 0
KAD1 040103Z 18010KT 32/11 A3011 RMK A01 T03160108  RH  028%=      5-min Rain = 0
KAD1 040104Z 18010KT 32/11 A3011 RMK A01 T03160108  RH  028%=      5-min Rain = 0
KAD1 040105Z 18009KT 32/11 A3011 RMK A01 T03160107  RH  028%=      5-min Rain = 0
KAD1 040106Z 19007KT 32/11 A3011 RMK A01 T03160107  RH  028%=      5-min Rain = 0
KAD1 040107Z 19007KT 32/11 A3011 RMK A01 T03160108  RH  028%=      5-min Rain = 0
KAD1 040108Z 20006KT 32/11 A3012 RMK A01 T03150107  RH  028%=      5-min Rain = 0
KAD1 040109Z 21005KT 32/11 A3012 RMK A01 T03150108  RH  028%=      5-min Rain = 0
KAD1 040110Z 23005KT 31/11 A3012 RMK A01 T03130108  RH  028%=      5-min Rain = 0
KAD1 040111Z 28009G17KT 31/11 A3014 RMK A01 T03130108  RH  028%=      5-min Rain = 0
KAD1 040112Z 30024KT 31/13 A3015 RMK A01 T03060132  RH  035%=      5-min Rain = 0
KAD1 040113Z 31017KT 27/14 A3015 RMK A01 T02740144  RH  045%=      5-min Rain = 0
KAD1 040114Z 30017G24KT 26/15 A3015 RMK A01 T02550145  RH  051%=      5-min Rain = 0
KAD1 040115Z 30019KT 25/15 A3015 RMK A01 T02460147  RH  054%=      5-min Rain = 0
KAD1 040116Z 30018KT 24/15 A3015 RMK A01 T02410148  RH  056%=      5-min Rain = 0
KAD1 040117Z 31015G22KT 24/15 A3015 RMK A01 T02380148  RH  057%=      5-min Rain = 0
KAD1 040118Z 32015G20KT 24/15 A3015 RMK A01 T02370149  RH  058%=      5-min Rain = 0
KAD1 040119Z 32015KT 24/15 A3015 RMK A01 T02360149  RH  058%=      5-min Rain = 0
KAD1 040120Z 32013KT 24/15 A3015 RMK A01 T02360149  RH  058%=      5-min Rain = 0
KAD1 040121Z 32017KT 24/15 A3015 RMK A01 T02360149  RH  058%=      5-min Rain = 0
KAD1 040122Z 33019G25KT 24/15 A3015 RMK A01 T02360150  RH  058%=      5-min Rain = 0
KAD1 040123Z 33018KT 24/15 A3015 RMK A01 T02360149  RH  058%=      5-min Rain = 0
KAD1 040124Z 33019KT 24/15 A3015 RMK A01 T02360150  RH  058%=      5-min Rain = 0
KAD1 040125Z 33016G21KT 24/15 A3016 RMK A01 T02370150  RH  058%=      5-min Rain = 0
KAD1 040126Z 34019KT 24/15 A3016 RMK A01 T02370151  RH  058%=      5-min Rain = 0
KAD1 040127Z 34020KT 24/15 A3016 RMK A01 T02370152  RH  059%=      5-min Rain = 0
KAD1 040128Z 34020KT 24/15 A3016 RMK A01 T02350152  RH  059%=      5-min Rain = 0
KAD1 040129Z 34019KT 23/15 A3016 RMK A01 T02340152  RH  060%=      5-min Rain = 0
KAD1 040130Z 34020KT 23/15 A3017 RMK A01 T02340153  RH  060%=      5-min Rain = 0
KAD1 040131Z 34020KT 23/15 A3017 RMK A01 T02330153  RH  061%=      5-min Rain = 0
KAD1 040132Z 34015KT 23/15 A3017 RMK A01 T02320153  RH  061%=      5-min Rain = 0
KAD1 040133Z 33017KT 23/15 A3017 RMK A01 T02320154  RH  061%=      5-min Rain = 0
KAD1 040134Z 33018KT 23/15 A3017 RMK A01 T02310154  RH  062%=      5-min Rain = 0
KAD1 040135Z 34017G22KT 23/16 A3017 RMK A01 T02300155  RH  062%=      5-min Rain = 0
KAD1 040136Z 34020KT 23/16 A3017 RMK A01 T02290155  RH  063%=      5-min Rain = 0
KAD1 040137Z 34020KT 23/16 A3017 RMK A01 T02270155  RH  064%=      5-min Rain = 0
KAD1 040138Z 34020KT 23/16 A3017 RMK A01 T02270155  RH  064%=      5-min Rain = 0
KAD1 040139Z 34016G21KT 23/16 A3017 RMK A01 T02250155  RH  065%=      5-min Rain = 0
KAD1 040140Z 34017G22KT 23/16 A3017 RMK A01 T02250155  RH  065%=      5-min Rain = 0
KAD1 040141Z 34018KT 23/16 A3017 RMK A01 T02250155  RH  065%=      5-min Rain = 0
KAD1 040142Z 34019KT 22/16 A3017 RMK A01 T02240155  RH  065%=      5-min Rain = 0
KAD1 040143Z 34018KT 22/16 A3018 RMK A01 T02220156  RH  066%=      5-min Rain = 0
KAD1 040144Z 34018KT 22/16 A3018 RMK A01 T02210156  RH  066%=      5-min Rain = 0
KAD1 040145Z 34022G28KT 22/16 A3018 RMK A01 T02190156  RH  067%=      5-min Rain = 0
KAD1 040146Z 35023G29KT 22/16 A3018 RMK A01 T02160156  RH  068%=      5-min Rain = 0
KAD1 040147Z 35019G25KT 21/16 A3018 RMK A01 T02130156  RH  070%=      5-min Rain = 0
KAD1 040148Z 35020G25KT 21/16 A3018 RMK A01 T02120157  RH  070%=      5-min Rain = 0
KAD1 040149Z 35020KT 21/16 A3019 RMK A01 T02110156  RH  071%=      5-min Rain = 0
KAD1 040150Z 35022KT 21/16 A3019 RMK A01 T02100157  RH  071%=      5-min Rain = 0
KAD1 040151Z 35019KT 21/16 A3019 RMK A01 T02100156  RH  071%=      5-min Rain = 0
KAD1 040152Z 34018KT 21/16 A3019 RMK A01 T02100156  RH  072%=      5-min Rain = 0
KAD1 040153Z 34016KT 21/16 A3019 RMK A01 T02090156  RH  072%=      5-min Rain = 0
KAD1 040154Z 34017KT 21/16 A3019 RMK A01 T02090155  RH  071%=      5-min Rain = 0
KAD1 040155Z 34020G25KT 21/16 A3019 RMK A01 T02090155  RH  071%=      5-min Rain = 0
KAD1 040156Z 34018KT 21/15 A3019 RMK A01 T02090154  RH  071%=      5-min Rain = 0
KAD1 040157Z 35015KT 21/16 A3019 RMK A01 T02090155  RH  071%=      5-min Rain = 0
KAD1 040158Z 35016KT 21/16 A3019 RMK A01 T02090155  RH  071%=      5-min Rain = 0
KAD1 040159Z 35015KT 21/15 A3019 RMK A01 T02090154  RH  071%=      5-min Rain = 0
KAD1 040200Z 34015G20KT 21/15 A3019 RMK A01 T02090154  RH  071%=      5-min Rain = 0
KAD1 040201Z 35015KT 21/15 A302 RMK A01 T02090153  RH  070%=      5-min Rain = 0
KAD1 040202Z 35016KT 21/15 A302 RMK A01 T02090153  RH  070%=      5-min Rain = 0
KAD1 040203Z 35016G21KT 21/15 A302 RMK A01 T02090153  RH  070%=      5-min Rain = 0
KAD1 040204Z 36013KT 21/15 A302 RMK A01 T02090152  RH  070%=      5-min Rain = 0
KAD1 040205Z 00016KT 21/15 A302 RMK A01 T02090152  RH  070%=      5-min Rain = 0
KAD1 040206Z 36018KT 21/15 A302 RMK A01 T02090152  RH  070%=      5-min Rain = 0
KAD1 040207Z 36013KT 21/15 A302 RMK A01 T02080151  RH  070%=      5-min Rain = 0
KAD1 040208Z 01016KT 21/15 A302 RMK A01 T02080151  RH  070%=      5-min Rain = 0
KAD1 040209Z 36015KT 21/15 A302 RMK A01 T02080150  RH  069%=      5-min Rain = 0
KAD1 040210Z 35013G18KT 21/15 A302 RMK A01 T02090150  RH  069%=      5-min Rain = 0
KAD1 040211Z 00017KT 21/15 A302 RMK A01 T02090149  RH  069%=      5-min Rain = 0
KAD1 040212Z 36013KT 21/15 A302 RMK A01 T02090149  RH  069%=      5-min Rain = 0
KAD1 040213Z 00015KT 21/15 A302 RMK A01 T02090149  RH  069%=      5-min Rain = 0
KAD1 040214Z 00014KT 21/15 A302 RMK A01 T02090149  RH  069%=      5-min Rain = 0
KAD1 040215Z 00015G21KT 21/15 A302 RMK A01 T02090149  RH  069%=      5-min Rain = 0
KAD1 040216Z 00016KT 21/15 A302 RMK A01 T02090149  RH  069%=      5-min Rain = 0
KAD1 040217Z 00015G21KT 21/15 A302 RMK A01 T02090149  RH  069%=      5-min Rain = 0
KAD1 040218Z 00013G19KT 21/15 A302 RMK A01 T02090149  RH  069%=      5-min Rain = 0
KAD1 040219Z 01014KT 21/15 A302 RMK A01 T02090149  RH  069%=      5-min Rain = 0
KAD1 040220Z 01015KT 21/15 A302 RMK A01 T02090150  RH  069%=      5-min Rain = 0
KAD1 040221Z 00013KT 21/15 A302 RMK A01 T02080150  RH  069%=      5-min Rain = 0
KAD1 040222Z 01017G22KT 21/15 A302 RMK A01 T02080150  RH  069%=      5-min Rain = 0
KAD1 040223Z 01018KT 21/15 A302 RMK A01 T02080149  RH  069%=      5-min Rain = 0
KAD1 040224Z 01017KT 21/15 A302 RMK A01 T02080149  RH  069%=      5-min Rain = 0
KAD1 040225Z 00020KT 21/15 A302 RMK A01 T02080149  RH  069%=      5-min Rain = 0
KAD1 040226Z 01016G21KT 21/15 A302 RMK A01 T02080150  RH  069%=      5-min Rain = 0
KAD1 040227Z 00018G24KT 21/15 A302 RMK A01 T02080150  RH  069%=      5-min Rain = 0
KAD1 040228Z 01021KT 21/15 A3019 RMK A01 T02080149  RH  069%=      5-min Rain = 0
KAD1 040229Z 01019KT 21/15 A302 RMK A01 T02080150  RH  069%=      5-min Rain = 0
KAD1 040230Z 01019G24KT 21/15 A302 RMK A01 T02070150  RH  070%=      5-min Rain = 0
KAD1 040231Z 01018KT 21/15 A3019 RMK A01 T02060151  RH  070%=      5-min Rain = 0
KAD1 040232Z 00017G22KT 21/15 A3019 RMK A01 T02060151  RH  071%=      5-min Rain = 0
KAD1 040233Z 01018KT 21/15 A3019 RMK A01 T02060151  RH  071%=      5-min Rain = 0
KAD1 040234Z 00014KT 21/15 A3019 RMK A01 T02060152  RH  071%=      5-min Rain = 0
KAD1 040235Z 01017KT 21/15 A3019 RMK A01 T02050151  RH  071%=      5-min Rain = 0
KAD1 040236Z 00016KT 21/15 A3019 RMK A01 T02060151  RH  071%=      5-min Rain = 0
KAD1 040237Z 01019KT 21/15 A3019 RMK A01 T02050151  RH  071%=      5-min Rain = 0
KAD1 040238Z 01019KT 21/15 A3019 RMK A01 T02060151  RH  071%=      5-min Rain = 0
KAD1 040239Z 00018KT 21/15 A3019 RMK A01 T02060151  RH  071%=      5-min Rain = 0
KAD1 040240Z 01015G20KT 21/15 A3019 RMK A01 T02050151  RH  071%=      5-min Rain = 0
KAD1 040241Z 01015KT 21/15 A3019 RMK A01 T02050151  RH  071%=      5-min Rain = 0
KAD1 040242Z 01017G22KT 21/15 A3019 RMK A01 T02060151  RH  071%=      5-min Rain = 0
KAD1 040243Z 00015G22KT 21/15 A3019 RMK A01 T02060151  RH  071%=      5-min Rain = 0
KAD1 040244Z 00017G22KT 21/15 A3019 RMK A01 T02060151  RH  071%=      5-min Rain = 0
KAD1 040245Z 01019KT 21/15 A3019 RMK A01 T02060151  RH  071%=      5-min Rain = 0
KAD1 040246Z 00021KT 21/15 A3019 RMK A01 T02060151  RH  071%=      5-min Rain = 0
KAD1 040247Z 00021KT 21/15 A3019 RMK A01 T02060151  RH  071%=      5-min Rain = 0
KAD1 040248Z 01020G25KT 21/15 A3019 RMK A01 T02050150  RH  071%=      5-min Rain = 0
KAD1 040249Z 01020KT 21/15 A3019 RMK A01 T02050150  RH  070%=      5-min Rain = 0
KAD1 040250Z 01017KT 21/15 A3019 RMK A01 T02050149  RH  070%=      5-min Rain = 0
KAD1 040251Z 01018G23KT 21/15 A3018 RMK A01 T02050149  RH  070%=      5-min Rain = 0
KAD1 040252Z 01022KT 21/15 A3018 RMK A01 T02060149  RH  070%=      5-min Rain = 0
KAD1 040253Z 01017G22KT 21/15 A3018 RMK A01 T02060149  RH  070%=      5-min Rain = 0
KAD1 040254Z 01015KT 21/15 A3018 RMK A01 T02060149  RH  070%=      5-min Rain = 0
KAD1 040255Z 01014KT 21/15 A3018 RMK A01 T02060149  RH  070%=      5-min Rain = 0
KAD1 040256Z 02014KT 21/15 A3018 RMK A01 T02060149  RH  070%=      5-min Rain = 0
KAD1 040257Z 01014KT 21/15 A3018 RMK A01 T02060149  RH  069%=      5-min Rain = 0
KAD1 040258Z 02016KT 21/15 A3018 RMK A01 T02060148  RH  069%=      5-min Rain = 0
KAD1 040259Z 01015KT 21/15 A3017 RMK A01 T02060148  RH  069%=      5-min Rain = 0
KAD1 040300Z 01016KT 21/15 A3017 RMK A01 T02060148  RH  069%=      5-min Rain = 0
KAD1 040301Z 01019KT 21/15 A3017 RMK A01 T02060147  RH  069%=      5-min Rain = 0
KAD1 040302Z 02020KT 21/15 A3017 RMK A01 T02060147  RH  069%=      5-min Rain = 0
KAD1 040303Z 02016KT 21/15 A3017 RMK A01 T02060148  RH  069%=      5-min Rain = 0
KAD1 040304Z 02017KT 21/15 A3017 RMK A01 T02060148  RH  069%=      5-min Rain = 0
KAD1 040305Z 02015KT 21/15 A3017 RMK A01 T02060148  RH  069%=      5-min Rain = 0
KAD1 040306Z 03012KT 21/15 A3017 RMK A01 T02060148  RH  069%=      5-min Rain = 0
KAD1 040307Z 02014KT 21/15 A3017 RMK A01 T02060147  RH  069%=      5-min Rain = 0
KAD1 040308Z 02016KT 21/15 A3017 RMK A01 T02060146  RH  068%=      5-min Rain = 0
KAD1 040309Z 02016KT 21/15 A3017 RMK A01 T02070146  RH  068%=      5-min Rain = 0
KAD1 040310Z 02016KT 21/15 A3017 RMK A01 T02070146  RH  068%=      5-min Rain = 0
KAD1 040311Z 03012KT 21/15 A3017 RMK A01 T02070146  RH  068%=      5-min Rain = 0
KAD1 040312Z 02012KT 21/15 A3017 RMK A01 T02070146  RH  068%=      5-min Rain = 0
KAD1 040313Z 02014KT 21/15 A3017 RMK A01 T02070146  RH  068%=      5-min Rain = 0
KAD1 040314Z 03016KT 21/15 A3017 RMK A01 T02070145  RH  068%=      5-min Rain = 0
KAD1 040315Z 03018KT 21/15 A3017 RMK A01 T02070145  RH  067%=      5-min Rain = 0
KAD1 040316Z 02016KT 21/14 A3017 RMK A01 T02070144  RH  067%=      5-min Rain = 0
KAD1 040317Z 03015KT 21/15 A3017 RMK A01 T02080145  RH  067%=      5-min Rain = 0
KAD1 040318Z 02015KT 21/14 A3017 RMK A01 T02080144  RH  067%=      5-min Rain = 0
KAD1 040319Z 02013KT 21/15 A3017 RMK A01 T02080145  RH  067%=      5-min Rain = 0
KAD1 040320Z 02015KT 21/14 A3017 RMK A01 T02080144  RH  067%=      5-min Rain = 0
KAD1 040321Z 03013KT 21/14 A3017 RMK A01 T02080144  RH  067%=      5-min Rain = 0
KAD1 040322Z 02012KT 21/15 A3017 RMK A01 T02090145  RH  067%=      5-min Rain = 0
KAD1 040323Z 02012KT 21/14 A3017 RMK A01 T02080144  RH  067%=      5-min Rain = 0
KAD1 040324Z 02012KT 21/14 A3017 RMK A01 T02090144  RH  066%=      5-min Rain = 0
KAD1 040325Z 03010KT 21/14 A3017 RMK A01 T02090143  RH  066%=      5-min Rain = 0
KAD1 040326Z 02009KT 21/14 A3018 RMK A01 T02090143  RH  066%=      5-min Rain = 0
KAD1 040327Z 02010KT 21/14 A3018 RMK A01 T02100143  RH  066%=      5-min Rain = 0
KAD1 040328Z 02010KT 21/14 A3018 RMK A01 T02100143  RH  065%=      5-min Rain = 0
KAD1 040329Z 01009KT 21/14 A3018 RMK A01 T02110142  RH  065%=      5-min Rain = 0
KAD1 040330Z 01009KT 21/14 A3018 RMK A01 T02110143  RH  065%=      5-min Rain = 0
KAD1 040331Z 01009KT 21/14 A3018 RMK A01 T02110142  RH  065%=      5-min Rain = 0
KAD1 040332Z 00008KT 21/14 A3018 RMK A01 T02110142  RH  065%=      5-min Rain = 0
KAD1 040333Z 00011KT 21/14 A3018 RMK A01 T02110142  RH  065%=      5-min Rain = 0
KAD1 040334Z 36010KT 21/14 A3018 RMK A01 T02110141  RH  064%=      5-min Rain = 0
KAD1 040335Z 01011KT 21/14 A3018 RMK A01 T02110141  RH  064%=      5-min Rain = 0
KAD1 040336Z 00008KT 21/14 A3018 RMK A01 T02110141  RH  064%=      5-min Rain = 0
KAD1 040337Z 00008KT 21/14 A3018 RMK A01 T02110142  RH  064%=      5-min Rain = 0
KAD1 040338Z 01010KT 21/14 A3018 RMK A01 T02110142  RH  064%=      5-min Rain = 0
KAD1 040339Z 36009KT 21/14 A3018 RMK A01 T02110141  RH  064%=      5-min Rain = 0
KAD1 040340Z 00009KT 21/14 A3018 RMK A01 T02110141  RH  064%=      5-min Rain = 0
KAD1 040341Z 36010KT 21/14 A3018 RMK A01 T02110142  RH  064%=      5-min Rain = 0
KAD1 040342Z 36009KT 21/14 A3018 RMK A01 T02110142  RH  064%=      5-min Rain = 0
KAD1 040343Z 00009KT 21/14 A3018 RMK A01 T02120142  RH  064%=      5-min Rain = 0
KAD1 040344Z 01008KT 21/14 A3018 RMK A01 T02110141  RH  064%=      5-min Rain = 0
KAD1 040345Z 00009KT 21/14 A3018 RMK A01 T02120141  RH  064%=      5-min Rain = 0
KAD1 040346Z 00010KT 21/14 A3018 RMK A01 T02110141  RH  064%=      5-min Rain = 0
KAD1 040347Z 01009KT 21/14 A3018 RMK A01 T02110141  RH  064%=      5-min Rain = 0
KAD1 040348Z 01008KT 21/14 A3018 RMK A01 T02110142  RH  064%=      5-min Rain = 0
KAD1 040349Z 02008KT 21/14 A3018 RMK A01 T02110142  RH  064%=      5-min Rain = 0
KAD1 040350Z 01009KT 21/14 A3018 RMK A01 T02110141  RH  064%=      5-min Rain = 0
KAD1 040351Z 02009KT 21/14 A3018 RMK A01 T02110141  RH  064%=      5-min Rain = 0
KAD1 040352Z 02009KT 21/14 A3018 RMK A01 T02110141  RH  064%=      5-min Rain = 0
KAD1 040353Z 04008KT 21/14 A3018 RMK A01 T02110141  RH  064%=      5-min Rain = 0
KAD1 040354Z 03009KT 21/14 A3018 RMK A01 T02110141  RH  064%=      5-min Rain = 0
KAD1 040355Z 03009KT 21/14 A3018 RMK A01 T02110142  RH  065%=      5-min Rain = 0
KAD1 040356Z 04009KT 21/14 A3018 RMK A01 T02110141  RH  065%=      5-min Rain = 0
KAD1 040357Z 03008KT 21/14 A3018 RMK A01 T02100141  RH  065%=      5-min Rain = 0
KAD1 040358Z 03007KT 21/14 A3018 RMK A01 T02100141  RH  065%=      5-min Rain = 0
KAD1 040359Z 03007KT 21/14 A3018 RMK A01 T02100141  RH  065%=      5-min Rain = 0
KAD1 040400Z 03007KT 21/14 A3018 RMK A01 T02100141  RH  065%=      5-min Rain = 0
KAD1 040401Z 03007KT 21/14 A3018 RMK A01 T02100141  RH  065%=      5-min Rain = 0
KAD1 040402Z 03006KT 21/14 A3018 RMK A01 T02100141  RH  065%=      5-min Rain = 0
KAD1 040403Z 03005KT 21/14 A3018 RMK A01 T02100141  RH  064%=      5-min Rain = 0
KAD1 040404Z 05006KT 21/14 A3018 RMK A01 T02110141  RH  064%=      5-min Rain = 0
KAD1 040405Z 05006KT 21/14 A3018 RMK A01 T02110141  RH  064%=      5-min Rain = 0
KAD1 040406Z 06007KT 21/14 A3018 RMK A01 T02110141  RH  064%=      5-min Rain = 0
KAD1 040407Z 06007KT 21/14 A3018 RMK A01 T02110140  RH  064%=      5-min Rain = 0
KAD1 040408Z 06007KT 21/14 A3017 RMK A01 T02110140  RH  064%=      5-min Rain = 0
KAD1 040409Z 07006KT 21/14 A3017 RMK A01 T02110140  RH  064%=      5-min Rain = 0
KAD1 040410Z 07006KT 21/14 A3017 RMK A01 T02110140  RH  064%=      5-min Rain = 0
KAD1 040411Z 08006KT 21/14 A3017 RMK A01 T02120140  RH  064%=      5-min Rain = 0
KAD1 040412Z 09006KT 21/14 A3017 RMK A01 T02120140  RH  063%=      5-min Rain = 0
KAD1 040413Z 09006KT 21/14 A3017 RMK A01 T02130140  RH  063%=      5-min Rain = 0
KAD1 040414Z 09007KT 21/14 A3017 RMK A01 T02130140  RH  063%=      5-min Rain = 0
KAD1 040415Z 08006KT 21/14 A3017 RMK A01 T02130140  RH  063%=      5-min Rain = 0
KAD1 040416Z 08007KT 21/14 A3017 RMK A01 T02130140  RH  063%=      5-min Rain = 0
KAD1 040417Z 09007KT 21/14 A3017 RMK A01 T02130140  RH  063%=      5-min Rain = 0
KAD1 040418Z 09007KT 21/14 A3017 RMK A01 T02130140  RH  063%=      5-min Rain = 0
KAD1 040419Z 10007KT 21/14 A3017 RMK A01 T02130140  RH  063%=      5-min Rain = 0
KAD1 040420Z 10007KT 21/14 A3017 RMK A01 T02130140  RH  063%=      5-min Rain = 0
KAD1 040421Z 10007KT 21/14 A3017 RMK A01 T02130140  RH  063%=      5-min Rain = 0
KAD1 040422Z 10006KT 21/14 A3017 RMK A01 T02140140  RH  063%=      5-min Rain = 0
KAD1 040423Z 10005KT 21/14 A3017 RMK A01 T02140140  RH  063%=      5-min Rain = 0
KAD1 040424Z 09005KT 21/14 A3017 RMK A01 T02140140  RH  063%=      5-min Rain = 0
KAD1 040425Z 09005KT 21/14 A3017 RMK A01 T02140140  RH  063%=      5-min Rain = 0
KAD1 040426Z 10005KT 21/14 A3017 RMK A01 T02140140  RH  063%=      5-min Rain = 0
KAD1 040427Z 09005KT 21/14 A3017 RMK A01 T02140140  RH  063%=      5-min Rain = 0
KAD1 040428Z 09005KT 21/14 A3017 RMK A01 T02140139  RH  063%=      5-min Rain = 0
KAD1 040429Z 09005KT 21/14 A3017 RMK A01 T02140140  RH  063%=      5-min Rain = 0
KAD1 040430Z 09005KT 21/14 A3017 RMK A01 T02140140  RH  063%=      5-min Rain = 0
KAD1 040431Z 09006KT 21/14 A3017 RMK A01 T02130139  RH  063%=      5-min Rain = 0
KAD1 040432Z 09007KT 21/14 A3017 RMK A01 T02130140  RH  063%=      5-min Rain = 0
KAD1 040433Z 09007KT 21/14 A3017 RMK A01 T02130139  RH  063%=      5-min Rain = 0
KAD1 040434Z 09007KT 21/14 A3017 RMK A01 T02130139  RH  063%=      5-min Rain = 0
KAD1 040435Z 09007KT 21/14 A3017 RMK A01 T02130139  RH  063%=      5-min Rain = 0
KAD1 040436Z 08006KT 21/14 A3017 RMK A01 T02120139  RH  063%=      5-min Rain = 0
KAD1 040437Z 08006KT 21/14 A3017 RMK A01 T02120140  RH  063%=      5-min Rain = 0
KAD1 040438Z 09005KT 21/14 A3017 RMK A01 T02120140  RH  063%=      5-min Rain = 0
KAD1 040439Z 09007KT 21/14 A3017 RMK A01 T02120140  RH  064%=      5-min Rain = 0
KAD1 040440Z 09007KT 21/14 A3017 RMK A01 T02110140  RH  064%=      5-min Rain = 0
KAD1 040441Z 10006KT 21/14 A3017 RMK A01 T02110140  RH  064%=      5-min Rain = 0
KAD1 040442Z 10005KT 21/14 A3017 RMK A01 T02110140  RH  064%=      5-min Rain = 0
KAD1 040443Z 10005KT 21/14 A3017 RMK A01 T02110140  RH  064%=      5-min Rain = 0
KAD1 040444Z 10005KT 21/14 A3017 RMK A01 T02100140  RH  064%=      5-min Rain = 0
KAD1 040445Z 11006KT 21/14 A3017 RMK A01 T02100140  RH  064%=      5-min Rain = 0
KAD1 040446Z 11005KT 21/14 A3017 RMK A01 T02100140  RH  064%=      5-min Rain = 0
KAD1 040447Z 11006KT 21/14 A3017 RMK A01 T02100140  RH  064%=      5-min Rain = 0
KAD1 040448Z 11006KT 21/14 A3017 RMK A01 T02100140  RH  064%=      5-min Rain = 0
KAD1 040449Z 11007KT 21/14 A3017 RMK A01 T02100140  RH  064%=      5-min Rain = 0
KAD1 040450Z 12005KT 21/14 A3017 RMK A01 T02100140  RH  064%=      5-min Rain = 0
KAD1 040451Z 12005KT 21/14 A3017 RMK A01 T02100140  RH  064%=      5-min Rain = 0
KAD1 040452Z 12006KT 21/14 A3017 RMK A01 T02100140  RH  064%=      5-min Rain = 0
KAD1 040453Z 12005KT 21/14 A3018 RMK A01 T02100141  RH  064%=      5-min Rain = 0
KAD1 040454Z 12005KT 21/14 A3017 RMK A01 T02100141  RH  064%=      5-min Rain = 0
KAD1 040455Z 12005KT 21/14 A3017 RMK A01 T02100141  RH  064%=      5-min Rain = 0
KAD1 040456Z 13005KT 21/14 A3017 RMK A01 T02100141  RH  065%=      5-min Rain = 0
KAD1 040457Z 12004KT 21/14 A3018 RMK A01 T02100141  RH  065%=      5-min Rain = 0
KAD1 040458Z 12004KT 21/14 A3018 RMK A01 T02100141  RH  065%=      5-min Rain = 0
KAD1 040459Z 12003KT 21/14 A3018 RMK A01 T02100142  RH  065%=      5-min Rain = 0

Page generated in 0.0705 seconds.